<?xml version="1.0" encoding="UTF-8" standalone="no" ?>
<gpx xmlns="http://www.topografix.com/GPX/1/1" xmlns:xsi="http://www.w3.org/2001/XMLSchema-instance" xsi:schemaLocation="http://www.topografix.com/GPX/1/1 http://www.topografix.com/GPX/1/1/gpx.xsd" version="1.1" creator="VisuGPX - https://www.visugpx.com">
  <metadata>
    <name>Herbignies Forêt de Mormal</name>
    <desc><![CDATA[Départ salle des Fêtes d'Herbignies, rue Berlandois. Parcours sans difficultés majeures, idéal pour groupe de randonneurs. Vérifiez le calendrier de l'ONF qu'il n'y a pas de chasses le jour ou vous décidez de randonner.]]></desc>
  </metadata>
  <trk>
    <name><![CDATA[HERBIGNIES Wg]]></name>
    <trkseg>
      <trkpt lat="50.24615" lon="3.6981">
        <ele>126.07</ele>
        <time>2016-09-08T12:05:56Z</time>
      </trkpt>
      <trkpt lat="50.24615" lon="3.69805">
        <ele>126.55</ele>
        <time>2016-09-08T12:06:20Z</time>
      </trkpt>
      <trkpt lat="50.24618" lon="3.6981">
        <ele>126.55</ele>
        <time>2016-09-08T12:06:45Z</time>
      </trkpt>
      <trkpt lat="50.24617" lon="3.69809">
        <ele>127.03</ele>
        <time>2016-09-08T12:07:10Z</time>
      </trkpt>
      <trkpt lat="50.24616" lon="3.69805">
        <ele>127.03</ele>
        <time>2016-09-08T12:07:32Z</time>
      </trkpt>
      <trkpt lat="50.24614" lon="3.69807">
        <ele>126.55</ele>
        <time>2016-09-08T12:07:48Z</time>
      </trkpt>
      <trkpt lat="50.24615" lon="3.69807">
        <ele>127.51</ele>
        <time>2016-09-08T12:08:04Z</time>
      </trkpt>
      <trkpt lat="50.24614" lon="3.69804">
        <ele>127.51</ele>
        <time>2016-09-08T12:08:22Z</time>
      </trkpt>
      <trkpt lat="50.24613" lon="3.69809">
        <ele>127.51</ele>
        <time>2016-09-08T12:08:49Z</time>
      </trkpt>
      <trkpt lat="50.24614" lon="3.69811">
        <ele>128.47</ele>
        <time>2016-09-08T12:09:21Z</time>
      </trkpt>
      <trkpt lat="50.24613" lon="3.69809">
        <ele>127.99</ele>
        <time>2016-09-08T12:09:39Z</time>
      </trkpt>
      <trkpt lat="50.24615" lon="3.69807">
        <ele>127.99</ele>
        <time>2016-09-08T12:09:58Z</time>
      </trkpt>
      <trkpt lat="50.24614" lon="3.69808">
        <ele>127.99</ele>
        <time>2016-09-08T12:10:16Z</time>
      </trkpt>
      <trkpt lat="50.24615" lon="3.69806">
        <ele>127.99</ele>
        <time>2016-09-08T12:10:36Z</time>
      </trkpt>
      <trkpt lat="50.24614" lon="3.69804">
        <ele>127.99</ele>
        <time>2016-09-08T12:10:58Z</time>
      </trkpt>
      <trkpt lat="50.24614" lon="3.69802">
        <ele>128.47</ele>
        <time>2016-09-08T12:11:11Z</time>
      </trkpt>
      <trkpt lat="50.24618" lon="3.69809">
        <ele>128.47</ele>
        <time>2016-09-08T12:11:32Z</time>
      </trkpt>
      <trkpt lat="50.24616" lon="3.69805">
        <ele>138.57</ele>
        <time>2016-09-08T12:11:44Z</time>
      </trkpt>
      <trkpt lat="50.24616" lon="3.69805">
        <ele>138.57</ele>
        <time>2016-09-08T12:11:45Z</time>
      </trkpt>
      <trkpt lat="50.24617" lon="3.69805">
        <ele>135.2</ele>
        <time>2016-09-08T12:11:49Z</time>
      </trkpt>
      <trkpt lat="50.24617" lon="3.69805">
        <ele>135.68</ele>
        <time>2016-09-08T12:12:07Z</time>
      </trkpt>
      <trkpt lat="50.24618" lon="3.69806">
        <ele>135.68</ele>
        <time>2016-09-08T12:12:29Z</time>
      </trkpt>
      <trkpt lat="50.24619" lon="3.69804">
        <ele>135.2</ele>
        <time>2016-09-08T12:12:43Z</time>
      </trkpt>
      <trkpt lat="50.24621" lon="3.69802">
        <ele>135.2</ele>
        <time>2016-09-08T12:13:06Z</time>
      </trkpt>
      <trkpt lat="50.24618" lon="3.69802">
        <ele>135.68</ele>
        <time>2016-09-08T12:13:31Z</time>
      </trkpt>
      <trkpt lat="50.24615" lon="3.69803">
        <ele>135.68</ele>
        <time>2016-09-08T12:13:52Z</time>
      </trkpt>
      <trkpt lat="50.24614" lon="3.69802">
        <ele>135.68</ele>
        <time>2016-09-08T12:14:15Z</time>
      </trkpt>
      <trkpt lat="50.24614" lon="3.69801">
        <ele>135.68</ele>
        <time>2016-09-08T12:14:40Z</time>
      </trkpt>
      <trkpt lat="50.24621" lon="3.6981">
        <ele>135.68</ele>
        <time>2016-09-08T12:14:52Z</time>
      </trkpt>
      <trkpt lat="50.2462" lon="3.69822">
        <ele>135.68</ele>
        <time>2016-09-08T12:15:12Z</time>
      </trkpt>
      <trkpt lat="50.24621" lon="3.69817">
        <ele>136.16</ele>
        <time>2016-09-08T12:15:31Z</time>
      </trkpt>
      <trkpt lat="50.24621" lon="3.69821">
        <ele>136.16</ele>
        <time>2016-09-08T12:16:03Z</time>
      </trkpt>
      <trkpt lat="50.2462" lon="3.69826">
        <ele>136.64</ele>
        <time>2016-09-08T12:16:23Z</time>
      </trkpt>
      <trkpt lat="50.24622" lon="3.69817">
        <ele>136.64</ele>
        <time>2016-09-08T12:16:44Z</time>
      </trkpt>
      <trkpt lat="50.24621" lon="3.69817">
        <ele>136.64</ele>
        <time>2016-09-08T12:17:06Z</time>
      </trkpt>
      <trkpt lat="50.2462" lon="3.6982">
        <ele>136.64</ele>
        <time>2016-09-08T12:17:27Z</time>
      </trkpt>
      <trkpt lat="50.2462" lon="3.69821">
        <ele>137.13</ele>
        <time>2016-09-08T12:17:57Z</time>
      </trkpt>
      <trkpt lat="50.24618" lon="3.69816">
        <ele>137.13</ele>
        <time>2016-09-08T12:18:13Z</time>
      </trkpt>
      <trkpt lat="50.24619" lon="3.6982">
        <ele>137.13</ele>
        <time>2016-09-08T12:18:30Z</time>
      </trkpt>
      <trkpt lat="50.24618" lon="3.69815">
        <ele>136.16</ele>
        <time>2016-09-08T12:18:52Z</time>
      </trkpt>
      <trkpt lat="50.24619" lon="3.69824">
        <ele>137.13</ele>
        <time>2016-09-08T12:19:14Z</time>
      </trkpt>
      <trkpt lat="50.2462" lon="3.69821">
        <ele>137.61</ele>
        <time>2016-09-08T12:19:29Z</time>
      </trkpt>
      <trkpt lat="50.24621" lon="3.69821">
        <ele>139.05</ele>
        <time>2016-09-08T12:19:31Z</time>
      </trkpt>
      <trkpt lat="50.24621" lon="3.6982">
        <ele>139.05</ele>
        <time>2016-09-08T12:19:32Z</time>
      </trkpt>
      <trkpt lat="50.2462" lon="3.6982">
        <ele>137.61</ele>
        <time>2016-09-08T12:19:47Z</time>
      </trkpt>
      <trkpt lat="50.24619" lon="3.69825">
        <ele>138.57</ele>
        <time>2016-09-08T12:20:04Z</time>
      </trkpt>
      <trkpt lat="50.24618" lon="3.69823">
        <ele>137.61</ele>
        <time>2016-09-08T12:20:16Z</time>
      </trkpt>
      <trkpt lat="50.24619" lon="3.6982">
        <ele>138.09</ele>
        <time>2016-09-08T12:20:28Z</time>
      </trkpt>
      <trkpt lat="50.2462" lon="3.69818">
        <ele>137.13</ele>
        <time>2016-09-08T12:20:30Z</time>
      </trkpt>
      <trkpt lat="50.24621" lon="3.69805">
        <ele>137.13</ele>
        <time>2016-09-08T12:20:44Z</time>
      </trkpt>
      <trkpt lat="50.24617" lon="3.69803">
        <ele>136.64</ele>
        <time>2016-09-08T12:21:01Z</time>
      </trkpt>
      <trkpt lat="50.24615" lon="3.69801">
        <ele>137.13</ele>
        <time>2016-09-08T12:21:13Z</time>
      </trkpt>
      <trkpt lat="50.24614" lon="3.69798">
        <ele>136.16</ele>
        <time>2016-09-08T12:21:39Z</time>
      </trkpt>
      <trkpt lat="50.24616" lon="3.69802">
        <ele>136.64</ele>
        <time>2016-09-08T12:21:55Z</time>
      </trkpt>
      <trkpt lat="50.24613" lon="3.69803">
        <ele>136.16</ele>
        <time>2016-09-08T12:22:15Z</time>
      </trkpt>
      <trkpt lat="50.24611" lon="3.69795">
        <ele>136.16</ele>
        <time>2016-09-08T12:22:26Z</time>
      </trkpt>
      <trkpt lat="50.24607" lon="3.69791">
        <ele>135.2</ele>
        <time>2016-09-08T12:22:35Z</time>
      </trkpt>
      <trkpt lat="50.24606" lon="3.69788">
        <ele>136.16</ele>
        <time>2016-09-08T12:22:39Z</time>
      </trkpt>
      <trkpt lat="50.24605" lon="3.69784">
        <ele>135.2</ele>
        <time>2016-09-08T12:22:43Z</time>
      </trkpt>
      <trkpt lat="50.24603" lon="3.69774">
        <ele>135.2</ele>
        <time>2016-09-08T12:22:56Z</time>
      </trkpt>
      <trkpt lat="50.24602" lon="3.69765">
        <ele>135.68</ele>
        <time>2016-09-08T12:23:06Z</time>
      </trkpt>
      <trkpt lat="50.24606" lon="3.69741">
        <ele>135.2</ele>
        <time>2016-09-08T12:23:21Z</time>
      </trkpt>
      <trkpt lat="50.24609" lon="3.69721">
        <ele>135.68</ele>
        <time>2016-09-08T12:23:35Z</time>
      </trkpt>
      <trkpt lat="50.24611" lon="3.69708">
        <ele>135.68</ele>
        <time>2016-09-08T12:23:42Z</time>
      </trkpt>
      <trkpt lat="50.24603" lon="3.69693">
        <ele>133.76</ele>
        <time>2016-09-08T12:23:55Z</time>
      </trkpt>
      <trkpt lat="50.24594" lon="3.69688">
        <ele>132.32</ele>
        <time>2016-09-08T12:24:02Z</time>
      </trkpt>
      <trkpt lat="50.24592" lon="3.69685">
        <ele>133.28</ele>
        <time>2016-09-08T12:24:05Z</time>
      </trkpt>
      <trkpt lat="50.24574" lon="3.69675">
        <ele>131.84</ele>
        <time>2016-09-08T12:24:18Z</time>
      </trkpt>
      <trkpt lat="50.24564" lon="3.69672">
        <ele>131.36</ele>
        <time>2016-09-08T12:24:28Z</time>
      </trkpt>
      <trkpt lat="50.24536" lon="3.69656">
        <ele>130.88</ele>
        <time>2016-09-08T12:24:45Z</time>
      </trkpt>
      <trkpt lat="50.2453" lon="3.69652">
        <ele>130.4</ele>
        <time>2016-09-08T12:24:52Z</time>
      </trkpt>
      <trkpt lat="50.24526" lon="3.69653">
        <ele>130.88</ele>
        <time>2016-09-08T12:24:56Z</time>
      </trkpt>
      <trkpt lat="50.24507" lon="3.69652">
        <ele>129.43</ele>
        <time>2016-09-08T12:25:13Z</time>
      </trkpt>
      <trkpt lat="50.24497" lon="3.69645">
        <ele>129.43</ele>
        <time>2016-09-08T12:25:26Z</time>
      </trkpt>
      <trkpt lat="50.24474" lon="3.69634">
        <ele>129.43</ele>
        <time>2016-09-08T12:25:47Z</time>
      </trkpt>
      <trkpt lat="50.24469" lon="3.6963">
        <ele>128.95</ele>
        <time>2016-09-08T12:25:53Z</time>
      </trkpt>
      <trkpt lat="50.24453" lon="3.69623">
        <ele>128.95</ele>
        <time>2016-09-08T12:26:07Z</time>
      </trkpt>
      <trkpt lat="50.24435" lon="3.69611">
        <ele>128.47</ele>
        <time>2016-09-08T12:26:22Z</time>
      </trkpt>
      <trkpt lat="50.24421" lon="3.69599">
        <ele>129.43</ele>
        <time>2016-09-08T12:26:36Z</time>
      </trkpt>
      <trkpt lat="50.24405" lon="3.69591">
        <ele>129.43</ele>
        <time>2016-09-08T12:26:49Z</time>
      </trkpt>
      <trkpt lat="50.24387" lon="3.69586">
        <ele>128.95</ele>
        <time>2016-09-08T12:27:03Z</time>
      </trkpt>
      <trkpt lat="50.24382" lon="3.69586">
        <ele>128.95</ele>
        <time>2016-09-08T12:27:08Z</time>
      </trkpt>
      <trkpt lat="50.24362" lon="3.69605">
        <ele>128.47</ele>
        <time>2016-09-08T12:27:27Z</time>
      </trkpt>
      <trkpt lat="50.24355" lon="3.69613">
        <ele>128.95</ele>
        <time>2016-09-08T12:27:35Z</time>
      </trkpt>
      <trkpt lat="50.24339" lon="3.69618">
        <ele>129.92</ele>
        <time>2016-09-08T12:27:49Z</time>
      </trkpt>
      <trkpt lat="50.24332" lon="3.69616">
        <ele>130.4</ele>
        <time>2016-09-08T12:27:56Z</time>
      </trkpt>
      <trkpt lat="50.24322" lon="3.69609">
        <ele>129.92</ele>
        <time>2016-09-08T12:28:05Z</time>
      </trkpt>
      <trkpt lat="50.24304" lon="3.69605">
        <ele>130.88</ele>
        <time>2016-09-08T12:28:19Z</time>
      </trkpt>
      <trkpt lat="50.24288" lon="3.69609">
        <ele>131.36</ele>
        <time>2016-09-08T12:28:32Z</time>
      </trkpt>
      <trkpt lat="50.24288" lon="3.69609">
        <ele>131.36</ele>
        <time>2016-09-08T12:28:33Z</time>
      </trkpt>
      <trkpt lat="50.24266" lon="3.6961">
        <ele>131.84</ele>
        <time>2016-09-08T12:28:49Z</time>
      </trkpt>
      <trkpt lat="50.24253" lon="3.69618">
        <ele>130.88</ele>
        <time>2016-09-08T12:29:02Z</time>
      </trkpt>
      <trkpt lat="50.24236" lon="3.6964">
        <ele>131.36</ele>
        <time>2016-09-08T12:29:21Z</time>
      </trkpt>
      <trkpt lat="50.24221" lon="3.69664">
        <ele>131.36</ele>
        <time>2016-09-08T12:29:39Z</time>
      </trkpt>
      <trkpt lat="50.24207" lon="3.69685">
        <ele>132.32</ele>
        <time>2016-09-08T12:29:55Z</time>
      </trkpt>
      <trkpt lat="50.24195" lon="3.69706">
        <ele>132.8</ele>
        <time>2016-09-08T12:30:10Z</time>
      </trkpt>
      <trkpt lat="50.24181" lon="3.6973">
        <ele>133.76</ele>
        <time>2016-09-08T12:30:28Z</time>
      </trkpt>
      <trkpt lat="50.24165" lon="3.69754">
        <ele>135.2</ele>
        <time>2016-09-08T12:30:47Z</time>
      </trkpt>
      <trkpt lat="50.24155" lon="3.69779">
        <ele>136.16</ele>
        <time>2016-09-08T12:31:04Z</time>
      </trkpt>
      <trkpt lat="50.24145" lon="3.69799">
        <ele>136.64</ele>
        <time>2016-09-08T12:31:16Z</time>
      </trkpt>
      <trkpt lat="50.24134" lon="3.69814">
        <ele>137.13</ele>
        <time>2016-09-08T12:31:30Z</time>
      </trkpt>
      <trkpt lat="50.24125" lon="3.69829">
        <ele>137.13</ele>
        <time>2016-09-08T12:31:37Z</time>
      </trkpt>
      <trkpt lat="50.24124" lon="3.69832">
        <ele>137.13</ele>
        <time>2016-09-08T12:31:39Z</time>
      </trkpt>
      <trkpt lat="50.24117" lon="3.69844">
        <ele>137.61</ele>
        <time>2016-09-08T12:31:47Z</time>
      </trkpt>
      <trkpt lat="50.24103" lon="3.6987">
        <ele>138.09</ele>
        <time>2016-09-08T12:32:03Z</time>
      </trkpt>
      <trkpt lat="50.24092" lon="3.69886">
        <ele>138.57</ele>
        <time>2016-09-08T12:32:17Z</time>
      </trkpt>
      <trkpt lat="50.24079" lon="3.69904">
        <ele>139.05</ele>
        <time>2016-09-08T12:32:29Z</time>
      </trkpt>
      <trkpt lat="50.24065" lon="3.69921">
        <ele>139.05</ele>
        <time>2016-09-08T12:32:42Z</time>
      </trkpt>
      <trkpt lat="50.24064" lon="3.69922">
        <ele>139.53</ele>
        <time>2016-09-08T12:32:43Z</time>
      </trkpt>
      <trkpt lat="50.2406" lon="3.69926">
        <ele>139.53</ele>
        <time>2016-09-08T12:32:48Z</time>
      </trkpt>
      <trkpt lat="50.24046" lon="3.69945">
        <ele>139.53</ele>
        <time>2016-09-08T12:33:04Z</time>
      </trkpt>
      <trkpt lat="50.24032" lon="3.69962">
        <ele>140.01</ele>
        <time>2016-09-08T12:33:17Z</time>
      </trkpt>
      <trkpt lat="50.24022" lon="3.69977">
        <ele>140.49</ele>
        <time>2016-09-08T12:33:29Z</time>
      </trkpt>
      <trkpt lat="50.24008" lon="3.69994">
        <ele>140.49</ele>
        <time>2016-09-08T12:33:45Z</time>
      </trkpt>
      <trkpt lat="50.23992" lon="3.70015">
        <ele>140.97</ele>
        <time>2016-09-08T12:34:03Z</time>
      </trkpt>
      <trkpt lat="50.23975" lon="3.70037">
        <ele>140.97</ele>
        <time>2016-09-08T12:34:21Z</time>
      </trkpt>
      <trkpt lat="50.23957" lon="3.70059">
        <ele>141.93</ele>
        <time>2016-09-08T12:34:41Z</time>
      </trkpt>
      <trkpt lat="50.2394" lon="3.70081">
        <ele>141.45</ele>
        <time>2016-09-08T12:35:00Z</time>
      </trkpt>
      <trkpt lat="50.23925" lon="3.70102">
        <ele>141.93</ele>
        <time>2016-09-08T12:35:17Z</time>
      </trkpt>
      <trkpt lat="50.23907" lon="3.70122">
        <ele>141.45</ele>
        <time>2016-09-08T12:35:35Z</time>
      </trkpt>
      <trkpt lat="50.2389" lon="3.70145">
        <ele>140.97</ele>
        <time>2016-09-08T12:35:52Z</time>
      </trkpt>
      <trkpt lat="50.23875" lon="3.70162">
        <ele>142.41</ele>
        <time>2016-09-08T12:36:09Z</time>
      </trkpt>
      <trkpt lat="50.23858" lon="3.70181">
        <ele>143.37</ele>
        <time>2016-09-08T12:36:27Z</time>
      </trkpt>
      <trkpt lat="50.2385" lon="3.70187">
        <ele>143.37</ele>
        <time>2016-09-08T12:36:36Z</time>
      </trkpt>
      <trkpt lat="50.23833" lon="3.70202">
        <ele>142.89</ele>
        <time>2016-09-08T12:36:52Z</time>
      </trkpt>
      <trkpt lat="50.2382" lon="3.7022">
        <ele>142.89</ele>
        <time>2016-09-08T12:37:06Z</time>
      </trkpt>
      <trkpt lat="50.23806" lon="3.70236">
        <ele>143.37</ele>
        <time>2016-09-08T12:37:22Z</time>
      </trkpt>
      <trkpt lat="50.23794" lon="3.70251">
        <ele>143.37</ele>
        <time>2016-09-08T12:37:35Z</time>
      </trkpt>
      <trkpt lat="50.23782" lon="3.70267">
        <ele>142.89</ele>
        <time>2016-09-08T12:37:47Z</time>
      </trkpt>
      <trkpt lat="50.23766" lon="3.70292">
        <ele>143.37</ele>
        <time>2016-09-08T12:38:05Z</time>
      </trkpt>
      <trkpt lat="50.2375" lon="3.7031">
        <ele>143.37</ele>
        <time>2016-09-08T12:38:21Z</time>
      </trkpt>
      <trkpt lat="50.23733" lon="3.70337">
        <ele>143.37</ele>
        <time>2016-09-08T12:38:38Z</time>
      </trkpt>
      <trkpt lat="50.2372" lon="3.70358">
        <ele>141.93</ele>
        <time>2016-09-08T12:38:54Z</time>
      </trkpt>
      <trkpt lat="50.23709" lon="3.7038">
        <ele>141.93</ele>
        <time>2016-09-08T12:39:08Z</time>
      </trkpt>
      <trkpt lat="50.23697" lon="3.70402">
        <ele>140.97</ele>
        <time>2016-09-08T12:39:22Z</time>
      </trkpt>
      <trkpt lat="50.23687" lon="3.70427">
        <ele>140.49</ele>
        <time>2016-09-08T12:39:37Z</time>
      </trkpt>
      <trkpt lat="50.23674" lon="3.70453">
        <ele>140.97</ele>
        <time>2016-09-08T12:39:53Z</time>
      </trkpt>
      <trkpt lat="50.23663" lon="3.7048">
        <ele>140.01</ele>
        <time>2016-09-08T12:40:10Z</time>
      </trkpt>
      <trkpt lat="50.23647" lon="3.70502">
        <ele>139.53</ele>
        <time>2016-09-08T12:40:26Z</time>
      </trkpt>
      <trkpt lat="50.23641" lon="3.70523">
        <ele>139.05</ele>
        <time>2016-09-08T12:40:44Z</time>
      </trkpt>
      <trkpt lat="50.23642" lon="3.70527">
        <ele>139.05</ele>
        <time>2016-09-08T12:41:12Z</time>
      </trkpt>
      <trkpt lat="50.23637" lon="3.70531">
        <ele>139.05</ele>
        <time>2016-09-08T12:41:28Z</time>
      </trkpt>
      <trkpt lat="50.23635" lon="3.70535">
        <ele>139.53</ele>
        <time>2016-09-08T12:41:37Z</time>
      </trkpt>
      <trkpt lat="50.23634" lon="3.70547">
        <ele>139.05</ele>
        <time>2016-09-08T12:41:46Z</time>
      </trkpt>
      <trkpt lat="50.23646" lon="3.70571">
        <ele>139.53</ele>
        <time>2016-09-08T12:42:01Z</time>
      </trkpt>
      <trkpt lat="50.23656" lon="3.70584">
        <ele>138.09</ele>
        <time>2016-09-08T12:42:12Z</time>
      </trkpt>
      <trkpt lat="50.23665" lon="3.70597">
        <ele>138.57</ele>
        <time>2016-09-08T12:42:23Z</time>
      </trkpt>
      <trkpt lat="50.23676" lon="3.70612">
        <ele>138.09</ele>
        <time>2016-09-08T12:42:35Z</time>
      </trkpt>
      <trkpt lat="50.23691" lon="3.70633">
        <ele>138.57</ele>
        <time>2016-09-08T12:42:50Z</time>
      </trkpt>
      <trkpt lat="50.23711" lon="3.70659">
        <ele>138.57</ele>
        <time>2016-09-08T12:43:04Z</time>
      </trkpt>
      <trkpt lat="50.23726" lon="3.70677">
        <ele>138.57</ele>
        <time>2016-09-08T12:43:19Z</time>
      </trkpt>
      <trkpt lat="50.23739" lon="3.70695">
        <ele>139.05</ele>
        <time>2016-09-08T12:43:33Z</time>
      </trkpt>
      <trkpt lat="50.23747" lon="3.70708">
        <ele>139.05</ele>
        <time>2016-09-08T12:43:43Z</time>
      </trkpt>
      <trkpt lat="50.23748" lon="3.70709">
        <ele>139.53</ele>
        <time>2016-09-08T12:43:44Z</time>
      </trkpt>
      <trkpt lat="50.23759" lon="3.70731">
        <ele>138.57</ele>
        <time>2016-09-08T12:43:59Z</time>
      </trkpt>
      <trkpt lat="50.23773" lon="3.70748">
        <ele>139.05</ele>
        <time>2016-09-08T12:44:14Z</time>
      </trkpt>
      <trkpt lat="50.23784" lon="3.70761">
        <ele>139.53</ele>
        <time>2016-09-08T12:44:27Z</time>
      </trkpt>
      <trkpt lat="50.23796" lon="3.70784">
        <ele>139.53</ele>
        <time>2016-09-08T12:44:41Z</time>
      </trkpt>
      <trkpt lat="50.23797" lon="3.7079">
        <ele>139.53</ele>
        <time>2016-09-08T12:44:58Z</time>
      </trkpt>
      <trkpt lat="50.23798" lon="3.70785">
        <ele>139.53</ele>
        <time>2016-09-08T12:45:06Z</time>
      </trkpt>
      <trkpt lat="50.23798" lon="3.70788">
        <ele>139.53</ele>
        <time>2016-09-08T12:45:07Z</time>
      </trkpt>
      <trkpt lat="50.23786" lon="3.70811">
        <ele>140.49</ele>
        <time>2016-09-08T12:45:22Z</time>
      </trkpt>
      <trkpt lat="50.2378" lon="3.70826">
        <ele>140.97</ele>
        <time>2016-09-08T12:45:37Z</time>
      </trkpt>
      <trkpt lat="50.2377" lon="3.70841">
        <ele>141.93</ele>
        <time>2016-09-08T12:45:48Z</time>
      </trkpt>
      <trkpt lat="50.23757" lon="3.70864">
        <ele>142.41</ele>
        <time>2016-09-08T12:46:05Z</time>
      </trkpt>
      <trkpt lat="50.23745" lon="3.70886">
        <ele>142.41</ele>
        <time>2016-09-08T12:46:21Z</time>
      </trkpt>
      <trkpt lat="50.23733" lon="3.70904">
        <ele>142.89</ele>
        <time>2016-09-08T12:46:36Z</time>
      </trkpt>
      <trkpt lat="50.23732" lon="3.70905">
        <ele>142.89</ele>
        <time>2016-09-08T12:46:37Z</time>
      </trkpt>
      <trkpt lat="50.23731" lon="3.70907">
        <ele>142.89</ele>
        <time>2016-09-08T12:46:38Z</time>
      </trkpt>
      <trkpt lat="50.2373" lon="3.70909">
        <ele>143.37</ele>
        <time>2016-09-08T12:46:39Z</time>
      </trkpt>
      <trkpt lat="50.23718" lon="3.70929">
        <ele>143.37</ele>
        <time>2016-09-08T12:46:55Z</time>
      </trkpt>
      <trkpt lat="50.23709" lon="3.70942">
        <ele>143.85</ele>
        <time>2016-09-08T12:47:07Z</time>
      </trkpt>
      <trkpt lat="50.23696" lon="3.70963">
        <ele>143.85</ele>
        <time>2016-09-08T12:47:22Z</time>
      </trkpt>
      <trkpt lat="50.23681" lon="3.70985">
        <ele>144.82</ele>
        <time>2016-09-08T12:47:39Z</time>
      </trkpt>
      <trkpt lat="50.23668" lon="3.71005">
        <ele>144.34</ele>
        <time>2016-09-08T12:47:54Z</time>
      </trkpt>
      <trkpt lat="50.2366" lon="3.71025">
        <ele>144.82</ele>
        <time>2016-09-08T12:48:08Z</time>
      </trkpt>
      <trkpt lat="50.23647" lon="3.71046">
        <ele>144.34</ele>
        <time>2016-09-08T12:48:23Z</time>
      </trkpt>
      <trkpt lat="50.23638" lon="3.71059">
        <ele>144.34</ele>
        <time>2016-09-08T12:48:32Z</time>
      </trkpt>
      <trkpt lat="50.23625" lon="3.71081">
        <ele>144.34</ele>
        <time>2016-09-08T12:48:47Z</time>
      </trkpt>
      <trkpt lat="50.23613" lon="3.71104">
        <ele>145.3</ele>
        <time>2016-09-08T12:49:04Z</time>
      </trkpt>
      <trkpt lat="50.23598" lon="3.71129">
        <ele>145.3</ele>
        <time>2016-09-08T12:49:20Z</time>
      </trkpt>
      <trkpt lat="50.23586" lon="3.7115">
        <ele>144.82</ele>
        <time>2016-09-08T12:49:33Z</time>
      </trkpt>
      <trkpt lat="50.23576" lon="3.71163">
        <ele>145.3</ele>
        <time>2016-09-08T12:49:47Z</time>
      </trkpt>
      <trkpt lat="50.2357" lon="3.71179">
        <ele>145.78</ele>
        <time>2016-09-08T12:50:01Z</time>
      </trkpt>
      <trkpt lat="50.23551" lon="3.71198">
        <ele>145.3</ele>
        <time>2016-09-08T12:50:17Z</time>
      </trkpt>
      <trkpt lat="50.23542" lon="3.71211">
        <ele>145.3</ele>
        <time>2016-09-08T12:50:28Z</time>
      </trkpt>
      <trkpt lat="50.23528" lon="3.71232">
        <ele>146.26</ele>
        <time>2016-09-08T12:50:43Z</time>
      </trkpt>
      <trkpt lat="50.23513" lon="3.71254">
        <ele>146.74</ele>
        <time>2016-09-08T12:50:59Z</time>
      </trkpt>
      <trkpt lat="50.235" lon="3.71278">
        <ele>146.26</ele>
        <time>2016-09-08T12:51:15Z</time>
      </trkpt>
      <trkpt lat="50.2349" lon="3.71297">
        <ele>146.26</ele>
        <time>2016-09-08T12:51:30Z</time>
      </trkpt>
      <trkpt lat="50.23474" lon="3.71323">
        <ele>146.74</ele>
        <time>2016-09-08T12:51:49Z</time>
      </trkpt>
      <trkpt lat="50.23467" lon="3.71337">
        <ele>147.22</ele>
        <time>2016-09-08T12:52:02Z</time>
      </trkpt>
      <trkpt lat="50.23472" lon="3.71347">
        <ele>147.22</ele>
        <time>2016-09-08T12:52:17Z</time>
      </trkpt>
      <trkpt lat="50.23472" lon="3.71352">
        <ele>147.22</ele>
        <time>2016-09-08T12:52:37Z</time>
      </trkpt>
      <trkpt lat="50.23472" lon="3.71351">
        <ele>147.22</ele>
        <time>2016-09-08T12:52:55Z</time>
      </trkpt>
      <trkpt lat="50.23472" lon="3.71348">
        <ele>147.22</ele>
        <time>2016-09-08T12:53:17Z</time>
      </trkpt>
      <trkpt lat="50.23472" lon="3.71351">
        <ele>147.7</ele>
        <time>2016-09-08T12:53:37Z</time>
      </trkpt>
      <trkpt lat="50.23464" lon="3.71357">
        <ele>148.18</ele>
        <time>2016-09-08T12:53:56Z</time>
      </trkpt>
      <trkpt lat="50.2345" lon="3.71367">
        <ele>148.66</ele>
        <time>2016-09-08T12:54:10Z</time>
      </trkpt>
      <trkpt lat="50.2344" lon="3.71386">
        <ele>148.18</ele>
        <time>2016-09-08T12:54:24Z</time>
      </trkpt>
      <trkpt lat="50.23431" lon="3.71407">
        <ele>148.66</ele>
        <time>2016-09-08T12:54:38Z</time>
      </trkpt>
      <trkpt lat="50.23424" lon="3.71415">
        <ele>148.18</ele>
        <time>2016-09-08T12:54:45Z</time>
      </trkpt>
      <trkpt lat="50.23424" lon="3.71416">
        <ele>148.18</ele>
        <time>2016-09-08T12:54:46Z</time>
      </trkpt>
      <trkpt lat="50.23412" lon="3.71443">
        <ele>148.18</ele>
        <time>2016-09-08T12:55:01Z</time>
      </trkpt>
      <trkpt lat="50.23411" lon="3.71446">
        <ele>147.7</ele>
        <time>2016-09-08T12:55:03Z</time>
      </trkpt>
      <trkpt lat="50.2341" lon="3.71447">
        <ele>148.18</ele>
        <time>2016-09-08T12:55:04Z</time>
      </trkpt>
      <trkpt lat="50.23399" lon="3.71469">
        <ele>147.22</ele>
        <time>2016-09-08T12:55:19Z</time>
      </trkpt>
      <trkpt lat="50.23395" lon="3.71477">
        <ele>147.22</ele>
        <time>2016-09-08T12:55:25Z</time>
      </trkpt>
      <trkpt lat="50.23395" lon="3.71479">
        <ele>147.22</ele>
        <time>2016-09-08T12:55:26Z</time>
      </trkpt>
      <trkpt lat="50.23394" lon="3.7148">
        <ele>147.22</ele>
        <time>2016-09-08T12:55:27Z</time>
      </trkpt>
      <trkpt lat="50.23381" lon="3.71504">
        <ele>146.74</ele>
        <time>2016-09-08T12:55:43Z</time>
      </trkpt>
      <trkpt lat="50.2337" lon="3.71523">
        <ele>146.74</ele>
        <time>2016-09-08T12:55:58Z</time>
      </trkpt>
      <trkpt lat="50.23359" lon="3.71542">
        <ele>146.74</ele>
        <time>2016-09-08T12:56:12Z</time>
      </trkpt>
      <trkpt lat="50.23345" lon="3.71561">
        <ele>145.78</ele>
        <time>2016-09-08T12:56:26Z</time>
      </trkpt>
      <trkpt lat="50.23326" lon="3.71588">
        <ele>145.3</ele>
        <time>2016-09-08T12:56:43Z</time>
      </trkpt>
      <trkpt lat="50.23312" lon="3.71614">
        <ele>144.82</ele>
        <time>2016-09-08T12:57:00Z</time>
      </trkpt>
      <trkpt lat="50.23298" lon="3.71638">
        <ele>145.3</ele>
        <time>2016-09-08T12:57:16Z</time>
      </trkpt>
      <trkpt lat="50.23293" lon="3.71647">
        <ele>144.82</ele>
        <time>2016-09-08T12:57:22Z</time>
      </trkpt>
      <trkpt lat="50.23283" lon="3.71665">
        <ele>144.34</ele>
        <time>2016-09-08T12:57:34Z</time>
      </trkpt>
      <trkpt lat="50.23272" lon="3.71684">
        <ele>144.34</ele>
        <time>2016-09-08T12:57:50Z</time>
      </trkpt>
      <trkpt lat="50.23261" lon="3.71702">
        <ele>144.82</ele>
        <time>2016-09-08T12:58:04Z</time>
      </trkpt>
      <trkpt lat="50.23249" lon="3.71726">
        <ele>144.82</ele>
        <time>2016-09-08T12:58:19Z</time>
      </trkpt>
      <trkpt lat="50.23246" lon="3.71731">
        <ele>144.34</ele>
        <time>2016-09-08T12:58:24Z</time>
      </trkpt>
      <trkpt lat="50.23245" lon="3.71733">
        <ele>144.34</ele>
        <time>2016-09-08T12:58:25Z</time>
      </trkpt>
      <trkpt lat="50.23244" lon="3.71735">
        <ele>144.34</ele>
        <time>2016-09-08T12:58:26Z</time>
      </trkpt>
      <trkpt lat="50.23243" lon="3.71738">
        <ele>144.82</ele>
        <time>2016-09-08T12:58:28Z</time>
      </trkpt>
      <trkpt lat="50.23237" lon="3.71747">
        <ele>144.82</ele>
        <time>2016-09-08T12:58:36Z</time>
      </trkpt>
      <trkpt lat="50.23224" lon="3.71768">
        <ele>145.78</ele>
        <time>2016-09-08T12:58:50Z</time>
      </trkpt>
      <trkpt lat="50.23215" lon="3.71783">
        <ele>145.78</ele>
        <time>2016-09-08T12:59:01Z</time>
      </trkpt>
      <trkpt lat="50.23199" lon="3.71805">
        <ele>147.7</ele>
        <time>2016-09-08T12:59:18Z</time>
      </trkpt>
      <trkpt lat="50.23186" lon="3.71828">
        <ele>147.22</ele>
        <time>2016-09-08T12:59:33Z</time>
      </trkpt>
      <trkpt lat="50.23178" lon="3.71845">
        <ele>148.18</ele>
        <time>2016-09-08T12:59:44Z</time>
      </trkpt>
      <trkpt lat="50.23177" lon="3.71846">
        <ele>147.7</ele>
        <time>2016-09-08T12:59:45Z</time>
      </trkpt>
      <trkpt lat="50.23167" lon="3.71863">
        <ele>148.66</ele>
        <time>2016-09-08T12:59:59Z</time>
      </trkpt>
      <trkpt lat="50.23151" lon="3.71888">
        <ele>148.66</ele>
        <time>2016-09-08T13:00:15Z</time>
      </trkpt>
      <trkpt lat="50.23137" lon="3.71915">
        <ele>150.1</ele>
        <time>2016-09-08T13:00:32Z</time>
      </trkpt>
      <trkpt lat="50.23133" lon="3.71925">
        <ele>150.58</ele>
        <time>2016-09-08T13:00:38Z</time>
      </trkpt>
      <trkpt lat="50.23123" lon="3.71943">
        <ele>150.1</ele>
        <time>2016-09-08T13:00:51Z</time>
      </trkpt>
      <trkpt lat="50.23111" lon="3.71965">
        <ele>151.06</ele>
        <time>2016-09-08T13:01:05Z</time>
      </trkpt>
      <trkpt lat="50.23098" lon="3.71983">
        <ele>151.06</ele>
        <time>2016-09-08T13:01:20Z</time>
      </trkpt>
      <trkpt lat="50.23088" lon="3.72002">
        <ele>151.54</ele>
        <time>2016-09-08T13:01:34Z</time>
      </trkpt>
      <trkpt lat="50.23078" lon="3.72021">
        <ele>151.54</ele>
        <time>2016-09-08T13:01:48Z</time>
      </trkpt>
      <trkpt lat="50.23077" lon="3.72022">
        <ele>151.06</ele>
        <time>2016-09-08T13:01:49Z</time>
      </trkpt>
      <trkpt lat="50.23075" lon="3.72024">
        <ele>151.54</ele>
        <time>2016-09-08T13:01:51Z</time>
      </trkpt>
      <trkpt lat="50.23074" lon="3.72025">
        <ele>152.03</ele>
        <time>2016-09-08T13:01:52Z</time>
      </trkpt>
      <trkpt lat="50.23072" lon="3.72026">
        <ele>152.03</ele>
        <time>2016-09-08T13:01:53Z</time>
      </trkpt>
      <trkpt lat="50.23059" lon="3.72047">
        <ele>152.03</ele>
        <time>2016-09-08T13:02:08Z</time>
      </trkpt>
      <trkpt lat="50.23049" lon="3.72066">
        <ele>152.03</ele>
        <time>2016-09-08T13:02:21Z</time>
      </trkpt>
      <trkpt lat="50.23039" lon="3.72085">
        <ele>152.51</ele>
        <time>2016-09-08T13:02:36Z</time>
      </trkpt>
      <trkpt lat="50.23025" lon="3.72109">
        <ele>151.54</ele>
        <time>2016-09-08T13:02:51Z</time>
      </trkpt>
      <trkpt lat="50.23013" lon="3.72127">
        <ele>151.06</ele>
        <time>2016-09-08T13:03:06Z</time>
      </trkpt>
      <trkpt lat="50.23012" lon="3.72129">
        <ele>151.54</ele>
        <time>2016-09-08T13:03:07Z</time>
      </trkpt>
      <trkpt lat="50.23011" lon="3.7213">
        <ele>151.54</ele>
        <time>2016-09-08T13:03:08Z</time>
      </trkpt>
      <trkpt lat="50.23009" lon="3.72132">
        <ele>151.54</ele>
        <time>2016-09-08T13:03:09Z</time>
      </trkpt>
      <trkpt lat="50.23009" lon="3.72133">
        <ele>152.03</ele>
        <time>2016-09-08T13:03:10Z</time>
      </trkpt>
      <trkpt lat="50.22999" lon="3.72155">
        <ele>151.54</ele>
        <time>2016-09-08T13:03:25Z</time>
      </trkpt>
      <trkpt lat="50.22984" lon="3.72176">
        <ele>150.58</ele>
        <time>2016-09-08T13:03:41Z</time>
      </trkpt>
      <trkpt lat="50.22967" lon="3.72201">
        <ele>151.54</ele>
        <time>2016-09-08T13:03:57Z</time>
      </trkpt>
      <trkpt lat="50.22955" lon="3.7222">
        <ele>151.54</ele>
        <time>2016-09-08T13:04:12Z</time>
      </trkpt>
      <trkpt lat="50.22941" lon="3.72245">
        <ele>152.03</ele>
        <time>2016-09-08T13:04:29Z</time>
      </trkpt>
      <trkpt lat="50.22929" lon="3.72265">
        <ele>151.54</ele>
        <time>2016-09-08T13:04:44Z</time>
      </trkpt>
      <trkpt lat="50.2292" lon="3.72279">
        <ele>151.54</ele>
        <time>2016-09-08T13:04:55Z</time>
      </trkpt>
      <trkpt lat="50.22919" lon="3.72281">
        <ele>151.54</ele>
        <time>2016-09-08T13:04:56Z</time>
      </trkpt>
      <trkpt lat="50.22918" lon="3.72282">
        <ele>152.03</ele>
        <time>2016-09-08T13:04:57Z</time>
      </trkpt>
      <trkpt lat="50.22917" lon="3.72283">
        <ele>151.54</ele>
        <time>2016-09-08T13:04:58Z</time>
      </trkpt>
      <trkpt lat="50.22905" lon="3.72304">
        <ele>151.54</ele>
        <time>2016-09-08T13:05:13Z</time>
      </trkpt>
      <trkpt lat="50.22891" lon="3.72329">
        <ele>152.51</ele>
        <time>2016-09-08T13:05:29Z</time>
      </trkpt>
      <trkpt lat="50.22878" lon="3.72351">
        <ele>151.54</ele>
        <time>2016-09-08T13:05:46Z</time>
      </trkpt>
      <trkpt lat="50.22868" lon="3.72369">
        <ele>152.51</ele>
        <time>2016-09-08T13:06:00Z</time>
      </trkpt>
      <trkpt lat="50.22858" lon="3.72387">
        <ele>152.51</ele>
        <time>2016-09-08T13:06:13Z</time>
      </trkpt>
      <trkpt lat="50.22852" lon="3.72399">
        <ele>152.99</ele>
        <time>2016-09-08T13:06:20Z</time>
      </trkpt>
      <trkpt lat="50.22838" lon="3.72425">
        <ele>153.47</ele>
        <time>2016-09-08T13:06:40Z</time>
      </trkpt>
      <trkpt lat="50.22837" lon="3.72429">
        <ele>153.47</ele>
        <time>2016-09-08T13:06:43Z</time>
      </trkpt>
      <trkpt lat="50.22836" lon="3.72431">
        <ele>153.95</ele>
        <time>2016-09-08T13:06:44Z</time>
      </trkpt>
      <trkpt lat="50.2282" lon="3.72452">
        <ele>154.43</ele>
        <time>2016-09-08T13:06:59Z</time>
      </trkpt>
      <trkpt lat="50.22813" lon="3.72474">
        <ele>154.43</ele>
        <time>2016-09-08T13:07:14Z</time>
      </trkpt>
      <trkpt lat="50.22801" lon="3.72494">
        <ele>155.87</ele>
        <time>2016-09-08T13:07:29Z</time>
      </trkpt>
      <trkpt lat="50.2279" lon="3.72514">
        <ele>156.83</ele>
        <time>2016-09-08T13:07:44Z</time>
      </trkpt>
      <trkpt lat="50.22788" lon="3.72517">
        <ele>157.79</ele>
        <time>2016-09-08T13:07:46Z</time>
      </trkpt>
      <trkpt lat="50.22774" lon="3.72536">
        <ele>157.79</ele>
        <time>2016-09-08T13:08:00Z</time>
      </trkpt>
      <trkpt lat="50.22763" lon="3.72558">
        <ele>158.75</ele>
        <time>2016-09-08T13:08:15Z</time>
      </trkpt>
      <trkpt lat="50.22752" lon="3.72575">
        <ele>159.24</ele>
        <time>2016-09-08T13:08:25Z</time>
      </trkpt>
      <trkpt lat="50.22743" lon="3.72587">
        <ele>159.72</ele>
        <time>2016-09-08T13:08:36Z</time>
      </trkpt>
      <trkpt lat="50.22742" lon="3.72589">
        <ele>159.72</ele>
        <time>2016-09-08T13:08:38Z</time>
      </trkpt>
      <trkpt lat="50.22742" lon="3.72591">
        <ele>159.72</ele>
        <time>2016-09-08T13:08:39Z</time>
      </trkpt>
      <trkpt lat="50.2274" lon="3.72593">
        <ele>159.72</ele>
        <time>2016-09-08T13:08:40Z</time>
      </trkpt>
      <trkpt lat="50.2274" lon="3.72594">
        <ele>159.72</ele>
        <time>2016-09-08T13:08:41Z</time>
      </trkpt>
      <trkpt lat="50.22731" lon="3.72609">
        <ele>160.2</ele>
        <time>2016-09-08T13:08:52Z</time>
      </trkpt>
      <trkpt lat="50.22724" lon="3.72618">
        <ele>159.72</ele>
        <time>2016-09-08T13:09:00Z</time>
      </trkpt>
      <trkpt lat="50.22716" lon="3.72634">
        <ele>159.24</ele>
        <time>2016-09-08T13:09:12Z</time>
      </trkpt>
      <trkpt lat="50.22706" lon="3.72649">
        <ele>159.24</ele>
        <time>2016-09-08T13:09:22Z</time>
      </trkpt>
      <trkpt lat="50.22703" lon="3.72654">
        <ele>159.24</ele>
        <time>2016-09-08T13:09:27Z</time>
      </trkpt>
      <trkpt lat="50.227" lon="3.72662">
        <ele>159.24</ele>
        <time>2016-09-08T13:09:32Z</time>
      </trkpt>
      <trkpt lat="50.22698" lon="3.72663">
        <ele>159.24</ele>
        <time>2016-09-08T13:09:34Z</time>
      </trkpt>
      <trkpt lat="50.2269" lon="3.72668">
        <ele>158.27</ele>
        <time>2016-09-08T13:09:50Z</time>
      </trkpt>
      <trkpt lat="50.2268" lon="3.72682">
        <ele>157.31</ele>
        <time>2016-09-08T13:10:05Z</time>
      </trkpt>
      <trkpt lat="50.22673" lon="3.72698">
        <ele>157.31</ele>
        <time>2016-09-08T13:10:19Z</time>
      </trkpt>
      <trkpt lat="50.22673" lon="3.72705">
        <ele>156.35</ele>
        <time>2016-09-08T13:10:42Z</time>
      </trkpt>
      <trkpt lat="50.22672" lon="3.72708">
        <ele>156.35</ele>
        <time>2016-09-08T13:11:16Z</time>
      </trkpt>
      <trkpt lat="50.22675" lon="3.72704">
        <ele>156.83</ele>
        <time>2016-09-08T13:11:40Z</time>
      </trkpt>
      <trkpt lat="50.22674" lon="3.72703">
        <ele>156.35</ele>
        <time>2016-09-08T13:12:03Z</time>
      </trkpt>
      <trkpt lat="50.22674" lon="3.7271">
        <ele>156.35</ele>
        <time>2016-09-08T13:12:36Z</time>
      </trkpt>
      <trkpt lat="50.22667" lon="3.72711">
        <ele>156.83</ele>
        <time>2016-09-08T13:13:02Z</time>
      </trkpt>
      <trkpt lat="50.22672" lon="3.72711">
        <ele>156.83</ele>
        <time>2016-09-08T13:13:27Z</time>
      </trkpt>
      <trkpt lat="50.22673" lon="3.72707">
        <ele>157.31</ele>
        <time>2016-09-08T13:13:52Z</time>
      </trkpt>
      <trkpt lat="50.22673" lon="3.72712">
        <ele>156.83</ele>
        <time>2016-09-08T13:14:23Z</time>
      </trkpt>
      <trkpt lat="50.22669" lon="3.72711">
        <ele>156.83</ele>
        <time>2016-09-08T13:14:51Z</time>
      </trkpt>
      <trkpt lat="50.22669" lon="3.72705">
        <ele>157.31</ele>
        <time>2016-09-08T13:15:18Z</time>
      </trkpt>
      <trkpt lat="50.22671" lon="3.7271">
        <ele>156.83</ele>
        <time>2016-09-08T13:15:48Z</time>
      </trkpt>
      <trkpt lat="50.22673" lon="3.72706">
        <ele>157.31</ele>
        <time>2016-09-08T13:16:11Z</time>
      </trkpt>
      <trkpt lat="50.22671" lon="3.72701">
        <ele>156.83</ele>
        <time>2016-09-08T13:16:18Z</time>
      </trkpt>
      <trkpt lat="50.2267" lon="3.72704">
        <ele>156.35</ele>
        <time>2016-09-08T13:16:23Z</time>
      </trkpt>
      <trkpt lat="50.22664" lon="3.72706">
        <ele>156.35</ele>
        <time>2016-09-08T13:16:30Z</time>
      </trkpt>
      <trkpt lat="50.22655" lon="3.72703">
        <ele>155.87</ele>
        <time>2016-09-08T13:16:38Z</time>
      </trkpt>
      <trkpt lat="50.22654" lon="3.72701">
        <ele>155.87</ele>
        <time>2016-09-08T13:16:39Z</time>
      </trkpt>
      <trkpt lat="50.22653" lon="3.727">
        <ele>155.87</ele>
        <time>2016-09-08T13:16:40Z</time>
      </trkpt>
      <trkpt lat="50.22655" lon="3.72695">
        <ele>156.35</ele>
        <time>2016-09-08T13:16:48Z</time>
      </trkpt>
      <trkpt lat="50.22651" lon="3.72673">
        <ele>157.79</ele>
        <time>2016-09-08T13:17:01Z</time>
      </trkpt>
      <trkpt lat="50.22645" lon="3.72652">
        <ele>158.27</ele>
        <time>2016-09-08T13:17:14Z</time>
      </trkpt>
      <trkpt lat="50.22638" lon="3.72627">
        <ele>159.24</ele>
        <time>2016-09-08T13:17:28Z</time>
      </trkpt>
      <trkpt lat="50.22632" lon="3.72606">
        <ele>158.75</ele>
        <time>2016-09-08T13:17:41Z</time>
      </trkpt>
      <trkpt lat="50.22625" lon="3.72582">
        <ele>159.72</ele>
        <time>2016-09-08T13:17:56Z</time>
      </trkpt>
      <trkpt lat="50.22615" lon="3.7255">
        <ele>159.72</ele>
        <time>2016-09-08T13:18:12Z</time>
      </trkpt>
      <trkpt lat="50.22609" lon="3.72527">
        <ele>160.2</ele>
        <time>2016-09-08T13:18:25Z</time>
      </trkpt>
      <trkpt lat="50.22603" lon="3.72501">
        <ele>160.68</ele>
        <time>2016-09-08T13:18:41Z</time>
      </trkpt>
      <trkpt lat="50.22602" lon="3.72496">
        <ele>159.72</ele>
        <time>2016-09-08T13:18:44Z</time>
      </trkpt>
      <trkpt lat="50.22602" lon="3.72493">
        <ele>159.72</ele>
        <time>2016-09-08T13:18:45Z</time>
      </trkpt>
      <trkpt lat="50.22601" lon="3.72492">
        <ele>160.2</ele>
        <time>2016-09-08T13:18:46Z</time>
      </trkpt>
      <trkpt lat="50.22601" lon="3.7249">
        <ele>160.2</ele>
        <time>2016-09-08T13:18:47Z</time>
      </trkpt>
      <trkpt lat="50.226" lon="3.72488">
        <ele>160.2</ele>
        <time>2016-09-08T13:18:48Z</time>
      </trkpt>
      <trkpt lat="50.22599" lon="3.72486">
        <ele>159.72</ele>
        <time>2016-09-08T13:18:49Z</time>
      </trkpt>
      <trkpt lat="50.22591" lon="3.72462">
        <ele>160.2</ele>
        <time>2016-09-08T13:19:04Z</time>
      </trkpt>
      <trkpt lat="50.22584" lon="3.72436">
        <ele>159.72</ele>
        <time>2016-09-08T13:19:18Z</time>
      </trkpt>
      <trkpt lat="50.22576" lon="3.72412">
        <ele>159.72</ele>
        <time>2016-09-08T13:19:35Z</time>
      </trkpt>
      <trkpt lat="50.22572" lon="3.72397">
        <ele>159.24</ele>
        <time>2016-09-08T13:19:43Z</time>
      </trkpt>
      <trkpt lat="50.22571" lon="3.72395">
        <ele>159.72</ele>
        <time>2016-09-08T13:19:44Z</time>
      </trkpt>
      <trkpt lat="50.2257" lon="3.72392">
        <ele>159.24</ele>
        <time>2016-09-08T13:19:45Z</time>
      </trkpt>
      <trkpt lat="50.22562" lon="3.72364">
        <ele>159.24</ele>
        <time>2016-09-08T13:19:58Z</time>
      </trkpt>
      <trkpt lat="50.22555" lon="3.72341">
        <ele>157.79</ele>
        <time>2016-09-08T13:20:11Z</time>
      </trkpt>
      <trkpt lat="50.22548" lon="3.72319">
        <ele>157.31</ele>
        <time>2016-09-08T13:20:24Z</time>
      </trkpt>
      <trkpt lat="50.22545" lon="3.72294">
        <ele>157.31</ele>
        <time>2016-09-08T13:20:36Z</time>
      </trkpt>
      <trkpt lat="50.22543" lon="3.72283">
        <ele>155.87</ele>
        <time>2016-09-08T13:20:42Z</time>
      </trkpt>
      <trkpt lat="50.22536" lon="3.72258">
        <ele>154.91</ele>
        <time>2016-09-08T13:20:56Z</time>
      </trkpt>
      <trkpt lat="50.22529" lon="3.72233">
        <ele>154.43</ele>
        <time>2016-09-08T13:21:11Z</time>
      </trkpt>
      <trkpt lat="50.22521" lon="3.72207">
        <ele>153.47</ele>
        <time>2016-09-08T13:21:26Z</time>
      </trkpt>
      <trkpt lat="50.22514" lon="3.72173">
        <ele>152.51</ele>
        <time>2016-09-08T13:21:42Z</time>
      </trkpt>
      <trkpt lat="50.22509" lon="3.72147">
        <ele>151.06</ele>
        <time>2016-09-08T13:21:58Z</time>
      </trkpt>
      <trkpt lat="50.22506" lon="3.72133">
        <ele>150.58</ele>
        <time>2016-09-08T13:22:08Z</time>
      </trkpt>
      <trkpt lat="50.22505" lon="3.72131">
        <ele>150.58</ele>
        <time>2016-09-08T13:22:09Z</time>
      </trkpt>
      <trkpt lat="50.22497" lon="3.72105">
        <ele>151.06</ele>
        <time>2016-09-08T13:22:25Z</time>
      </trkpt>
      <trkpt lat="50.22491" lon="3.72079">
        <ele>151.54</ele>
        <time>2016-09-08T13:22:39Z</time>
      </trkpt>
      <trkpt lat="50.22486" lon="3.72051">
        <ele>151.54</ele>
        <time>2016-09-08T13:22:53Z</time>
      </trkpt>
      <trkpt lat="50.2248" lon="3.72029">
        <ele>152.99</ele>
        <time>2016-09-08T13:23:06Z</time>
      </trkpt>
      <trkpt lat="50.22472" lon="3.72008">
        <ele>153.47</ele>
        <time>2016-09-08T13:23:18Z</time>
      </trkpt>
      <trkpt lat="50.22464" lon="3.71984">
        <ele>154.43</ele>
        <time>2016-09-08T13:23:33Z</time>
      </trkpt>
      <trkpt lat="50.22458" lon="3.71959">
        <ele>154.91</ele>
        <time>2016-09-08T13:23:49Z</time>
      </trkpt>
      <trkpt lat="50.22452" lon="3.71929">
        <ele>155.39</ele>
        <time>2016-09-08T13:24:06Z</time>
      </trkpt>
      <trkpt lat="50.22441" lon="3.71899">
        <ele>155.39</ele>
        <time>2016-09-08T13:24:24Z</time>
      </trkpt>
      <trkpt lat="50.22436" lon="3.71875">
        <ele>156.83</ele>
        <time>2016-09-08T13:24:38Z</time>
      </trkpt>
      <trkpt lat="50.22429" lon="3.71851">
        <ele>156.83</ele>
        <time>2016-09-08T13:24:51Z</time>
      </trkpt>
      <trkpt lat="50.22421" lon="3.71824">
        <ele>156.83</ele>
        <time>2016-09-08T13:25:07Z</time>
      </trkpt>
      <trkpt lat="50.22413" lon="3.71795">
        <ele>156.83</ele>
        <time>2016-09-08T13:25:23Z</time>
      </trkpt>
      <trkpt lat="50.22411" lon="3.71785">
        <ele>157.31</ele>
        <time>2016-09-08T13:25:29Z</time>
      </trkpt>
      <trkpt lat="50.22406" lon="3.71768">
        <ele>156.83</ele>
        <time>2016-09-08T13:25:39Z</time>
      </trkpt>
      <trkpt lat="50.224" lon="3.71743">
        <ele>156.35</ele>
        <time>2016-09-08T13:25:53Z</time>
      </trkpt>
      <trkpt lat="50.22395" lon="3.71729">
        <ele>156.35</ele>
        <time>2016-09-08T13:26:02Z</time>
      </trkpt>
      <trkpt lat="50.22395" lon="3.71727">
        <ele>156.35</ele>
        <time>2016-09-08T13:26:03Z</time>
      </trkpt>
      <trkpt lat="50.22387" lon="3.71699">
        <ele>155.87</ele>
        <time>2016-09-08T13:26:19Z</time>
      </trkpt>
      <trkpt lat="50.2238" lon="3.71671">
        <ele>155.39</ele>
        <time>2016-09-08T13:26:34Z</time>
      </trkpt>
      <trkpt lat="50.22373" lon="3.71646">
        <ele>155.39</ele>
        <time>2016-09-08T13:26:49Z</time>
      </trkpt>
      <trkpt lat="50.22367" lon="3.71624">
        <ele>154.91</ele>
        <time>2016-09-08T13:27:02Z</time>
      </trkpt>
      <trkpt lat="50.22359" lon="3.71597">
        <ele>155.39</ele>
        <time>2016-09-08T13:27:17Z</time>
      </trkpt>
      <trkpt lat="50.22353" lon="3.71573">
        <ele>155.39</ele>
        <time>2016-09-08T13:27:31Z</time>
      </trkpt>
      <trkpt lat="50.22348" lon="3.71552">
        <ele>157.31</ele>
        <time>2016-09-08T13:27:44Z</time>
      </trkpt>
      <trkpt lat="50.2234" lon="3.71528">
        <ele>157.79</ele>
        <time>2016-09-08T13:27:59Z</time>
      </trkpt>
      <trkpt lat="50.22334" lon="3.71506">
        <ele>157.79</ele>
        <time>2016-09-08T13:28:11Z</time>
      </trkpt>
      <trkpt lat="50.22333" lon="3.71503">
        <ele>158.27</ele>
        <time>2016-09-08T13:28:13Z</time>
      </trkpt>
      <trkpt lat="50.22333" lon="3.71501">
        <ele>158.75</ele>
        <time>2016-09-08T13:28:14Z</time>
      </trkpt>
      <trkpt lat="50.22332" lon="3.71499">
        <ele>158.27</ele>
        <time>2016-09-08T13:28:15Z</time>
      </trkpt>
      <trkpt lat="50.22326" lon="3.71477">
        <ele>160.2</ele>
        <time>2016-09-08T13:28:31Z</time>
      </trkpt>
      <trkpt lat="50.22318" lon="3.71452">
        <ele>160.68</ele>
        <time>2016-09-08T13:28:47Z</time>
      </trkpt>
      <trkpt lat="50.22316" lon="3.71444">
        <ele>160.2</ele>
        <time>2016-09-08T13:29:03Z</time>
      </trkpt>
      <trkpt lat="50.22314" lon="3.71453">
        <ele>160.2</ele>
        <time>2016-09-08T13:29:17Z</time>
      </trkpt>
      <trkpt lat="50.22314" lon="3.71445">
        <ele>159.72</ele>
        <time>2016-09-08T13:29:31Z</time>
      </trkpt>
      <trkpt lat="50.22312" lon="3.71434">
        <ele>159.72</ele>
        <time>2016-09-08T13:29:46Z</time>
      </trkpt>
      <trkpt lat="50.22313" lon="3.71431">
        <ele>160.2</ele>
        <time>2016-09-08T13:30:16Z</time>
      </trkpt>
      <trkpt lat="50.22313" lon="3.71432">
        <ele>159.72</ele>
        <time>2016-09-08T13:30:50Z</time>
      </trkpt>
      <trkpt lat="50.22314" lon="3.7143">
        <ele>159.24</ele>
        <time>2016-09-08T13:31:21Z</time>
      </trkpt>
      <trkpt lat="50.22313" lon="3.71429">
        <ele>159.24</ele>
        <time>2016-09-08T13:31:45Z</time>
      </trkpt>
      <trkpt lat="50.22313" lon="3.71422">
        <ele>158.75</ele>
        <time>2016-09-08T13:32:00Z</time>
      </trkpt>
      <trkpt lat="50.22312" lon="3.71419">
        <ele>160.2</ele>
        <time>2016-09-08T13:32:17Z</time>
      </trkpt>
      <trkpt lat="50.22308" lon="3.7141">
        <ele>159.72</ele>
        <time>2016-09-08T13:32:30Z</time>
      </trkpt>
      <trkpt lat="50.22301" lon="3.71389">
        <ele>158.75</ele>
        <time>2016-09-08T13:32:43Z</time>
      </trkpt>
      <trkpt lat="50.22296" lon="3.71372">
        <ele>158.27</ele>
        <time>2016-09-08T13:32:54Z</time>
      </trkpt>
      <trkpt lat="50.22296" lon="3.7137">
        <ele>158.27</ele>
        <time>2016-09-08T13:32:55Z</time>
      </trkpt>
      <trkpt lat="50.22295" lon="3.71369">
        <ele>158.27</ele>
        <time>2016-09-08T13:32:56Z</time>
      </trkpt>
      <trkpt lat="50.22288" lon="3.71349">
        <ele>158.27</ele>
        <time>2016-09-08T13:33:10Z</time>
      </trkpt>
      <trkpt lat="50.22281" lon="3.7132">
        <ele>157.79</ele>
        <time>2016-09-08T13:33:24Z</time>
      </trkpt>
      <trkpt lat="50.22276" lon="3.71307">
        <ele>156.35</ele>
        <time>2016-09-08T13:33:35Z</time>
      </trkpt>
      <trkpt lat="50.22275" lon="3.71305">
        <ele>156.83</ele>
        <time>2016-09-08T13:33:36Z</time>
      </trkpt>
      <trkpt lat="50.22275" lon="3.71302">
        <ele>156.35</ele>
        <time>2016-09-08T13:33:37Z</time>
      </trkpt>
      <trkpt lat="50.22268" lon="3.71274">
        <ele>156.35</ele>
        <time>2016-09-08T13:33:52Z</time>
      </trkpt>
      <trkpt lat="50.22262" lon="3.71249">
        <ele>154.43</ele>
        <time>2016-09-08T13:34:06Z</time>
      </trkpt>
      <trkpt lat="50.22253" lon="3.71219">
        <ele>153.95</ele>
        <time>2016-09-08T13:34:24Z</time>
      </trkpt>
      <trkpt lat="50.22252" lon="3.71213">
        <ele>152.99</ele>
        <time>2016-09-08T13:34:28Z</time>
      </trkpt>
      <trkpt lat="50.22252" lon="3.71211">
        <ele>152.99</ele>
        <time>2016-09-08T13:34:29Z</time>
      </trkpt>
      <trkpt lat="50.22251" lon="3.7121">
        <ele>152.99</ele>
        <time>2016-09-08T13:34:30Z</time>
      </trkpt>
      <trkpt lat="50.22251" lon="3.71208">
        <ele>152.51</ele>
        <time>2016-09-08T13:34:31Z</time>
      </trkpt>
      <trkpt lat="50.2225" lon="3.71205">
        <ele>152.51</ele>
        <time>2016-09-08T13:34:32Z</time>
      </trkpt>
      <trkpt lat="50.22249" lon="3.71203">
        <ele>152.99</ele>
        <time>2016-09-08T13:34:33Z</time>
      </trkpt>
      <trkpt lat="50.22249" lon="3.712">
        <ele>152.99</ele>
        <time>2016-09-08T13:34:34Z</time>
      </trkpt>
      <trkpt lat="50.22243" lon="3.71184">
        <ele>151.54</ele>
        <time>2016-09-08T13:34:47Z</time>
      </trkpt>
      <trkpt lat="50.22242" lon="3.71182">
        <ele>151.54</ele>
        <time>2016-09-08T13:34:48Z</time>
      </trkpt>
      <trkpt lat="50.22237" lon="3.71145">
        <ele>150.1</ele>
        <time>2016-09-08T13:35:03Z</time>
      </trkpt>
      <trkpt lat="50.22233" lon="3.71131">
        <ele>149.14</ele>
        <time>2016-09-08T13:35:17Z</time>
      </trkpt>
      <trkpt lat="50.22227" lon="3.71112">
        <ele>148.66</ele>
        <time>2016-09-08T13:35:30Z</time>
      </trkpt>
      <trkpt lat="50.22221" lon="3.71091">
        <ele>147.22</ele>
        <time>2016-09-08T13:35:43Z</time>
      </trkpt>
      <trkpt lat="50.22217" lon="3.71066">
        <ele>147.7</ele>
        <time>2016-09-08T13:35:57Z</time>
      </trkpt>
      <trkpt lat="50.22223" lon="3.71051">
        <ele>146.74</ele>
        <time>2016-09-08T13:36:11Z</time>
      </trkpt>
      <trkpt lat="50.22233" lon="3.71039">
        <ele>145.78</ele>
        <time>2016-09-08T13:36:26Z</time>
      </trkpt>
      <trkpt lat="50.22244" lon="3.71021">
        <ele>145.78</ele>
        <time>2016-09-08T13:36:43Z</time>
      </trkpt>
      <trkpt lat="50.22259" lon="3.70999">
        <ele>145.78</ele>
        <time>2016-09-08T13:37:03Z</time>
      </trkpt>
      <trkpt lat="50.22274" lon="3.70977">
        <ele>146.74</ele>
        <time>2016-09-08T13:37:22Z</time>
      </trkpt>
      <trkpt lat="50.22276" lon="3.70976">
        <ele>146.74</ele>
        <time>2016-09-08T13:37:24Z</time>
      </trkpt>
      <trkpt lat="50.2229" lon="3.70952">
        <ele>146.74</ele>
        <time>2016-09-08T13:37:39Z</time>
      </trkpt>
      <trkpt lat="50.22301" lon="3.70939">
        <ele>147.22</ele>
        <time>2016-09-08T13:37:55Z</time>
      </trkpt>
      <trkpt lat="50.22303" lon="3.70934">
        <ele>147.7</ele>
        <time>2016-09-08T13:37:57Z</time>
      </trkpt>
      <trkpt lat="50.22314" lon="3.70923">
        <ele>148.66</ele>
        <time>2016-09-08T13:38:12Z</time>
      </trkpt>
      <trkpt lat="50.22326" lon="3.70894">
        <ele>149.14</ele>
        <time>2016-09-08T13:38:28Z</time>
      </trkpt>
      <trkpt lat="50.22342" lon="3.70867">
        <ele>149.62</ele>
        <time>2016-09-08T13:38:41Z</time>
      </trkpt>
      <trkpt lat="50.22351" lon="3.70855">
        <ele>150.1</ele>
        <time>2016-09-08T13:38:56Z</time>
      </trkpt>
      <trkpt lat="50.22352" lon="3.70854">
        <ele>150.58</ele>
        <time>2016-09-08T13:38:57Z</time>
      </trkpt>
      <trkpt lat="50.22364" lon="3.70824">
        <ele>151.06</ele>
        <time>2016-09-08T13:39:11Z</time>
      </trkpt>
      <trkpt lat="50.22374" lon="3.70808">
        <ele>151.54</ele>
        <time>2016-09-08T13:39:27Z</time>
      </trkpt>
      <trkpt lat="50.22391" lon="3.70775">
        <ele>153.47</ele>
        <time>2016-09-08T13:39:47Z</time>
      </trkpt>
      <trkpt lat="50.224" lon="3.70755">
        <ele>153.95</ele>
        <time>2016-09-08T13:39:58Z</time>
      </trkpt>
      <trkpt lat="50.22431" lon="3.70688">
        <ele>154.91</ele>
        <time>2016-09-08T13:40:16Z</time>
      </trkpt>
      <trkpt lat="50.2245" lon="3.7066">
        <ele>155.39</ele>
        <time>2016-09-08T13:40:33Z</time>
      </trkpt>
      <trkpt lat="50.22464" lon="3.70636">
        <ele>156.83</ele>
        <time>2016-09-08T13:40:49Z</time>
      </trkpt>
      <trkpt lat="50.22479" lon="3.7061">
        <ele>156.83</ele>
        <time>2016-09-08T13:41:06Z</time>
      </trkpt>
      <trkpt lat="50.2249" lon="3.70585">
        <ele>157.31</ele>
        <time>2016-09-08T13:41:23Z</time>
      </trkpt>
      <trkpt lat="50.22499" lon="3.70568">
        <ele>156.83</ele>
        <time>2016-09-08T13:41:36Z</time>
      </trkpt>
      <trkpt lat="50.22511" lon="3.70546">
        <ele>157.31</ele>
        <time>2016-09-08T13:41:52Z</time>
      </trkpt>
      <trkpt lat="50.22521" lon="3.70525">
        <ele>157.31</ele>
        <time>2016-09-08T13:42:09Z</time>
      </trkpt>
      <trkpt lat="50.22531" lon="3.70506">
        <ele>157.79</ele>
        <time>2016-09-08T13:42:21Z</time>
      </trkpt>
      <trkpt lat="50.2254" lon="3.70491">
        <ele>157.31</ele>
        <time>2016-09-08T13:42:31Z</time>
      </trkpt>
      <trkpt lat="50.22541" lon="3.70489">
        <ele>157.79</ele>
        <time>2016-09-08T13:42:32Z</time>
      </trkpt>
      <trkpt lat="50.22556" lon="3.70463">
        <ele>157.79</ele>
        <time>2016-09-08T13:42:49Z</time>
      </trkpt>
      <trkpt lat="50.22569" lon="3.70441">
        <ele>159.24</ele>
        <time>2016-09-08T13:43:04Z</time>
      </trkpt>
      <trkpt lat="50.2258" lon="3.70419">
        <ele>159.24</ele>
        <time>2016-09-08T13:43:22Z</time>
      </trkpt>
      <trkpt lat="50.22596" lon="3.70397">
        <ele>160.68</ele>
        <time>2016-09-08T13:43:37Z</time>
      </trkpt>
      <trkpt lat="50.22602" lon="3.70389">
        <ele>161.16</ele>
        <time>2016-09-08T13:43:51Z</time>
      </trkpt>
      <trkpt lat="50.22614" lon="3.70376">
        <ele>162.12</ele>
        <time>2016-09-08T13:44:06Z</time>
      </trkpt>
      <trkpt lat="50.22625" lon="3.70355">
        <ele>161.16</ele>
        <time>2016-09-08T13:44:22Z</time>
      </trkpt>
      <trkpt lat="50.22637" lon="3.70339">
        <ele>160.2</ele>
        <time>2016-09-08T13:44:37Z</time>
      </trkpt>
      <trkpt lat="50.2265" lon="3.70302">
        <ele>160.2</ele>
        <time>2016-09-08T13:44:50Z</time>
      </trkpt>
      <trkpt lat="50.22664" lon="3.70276">
        <ele>159.24</ele>
        <time>2016-09-08T13:45:07Z</time>
      </trkpt>
      <trkpt lat="50.22679" lon="3.70254">
        <ele>158.27</ele>
        <time>2016-09-08T13:45:24Z</time>
      </trkpt>
      <trkpt lat="50.22693" lon="3.7023">
        <ele>157.79</ele>
        <time>2016-09-08T13:45:40Z</time>
      </trkpt>
      <trkpt lat="50.22704" lon="3.7021">
        <ele>156.35</ele>
        <time>2016-09-08T13:45:53Z</time>
      </trkpt>
      <trkpt lat="50.22708" lon="3.70205">
        <ele>155.87</ele>
        <time>2016-09-08T13:45:57Z</time>
      </trkpt>
      <trkpt lat="50.2272" lon="3.70186">
        <ele>155.39</ele>
        <time>2016-09-08T13:46:12Z</time>
      </trkpt>
      <trkpt lat="50.2273" lon="3.70167">
        <ele>155.39</ele>
        <time>2016-09-08T13:46:26Z</time>
      </trkpt>
      <trkpt lat="50.22743" lon="3.70144">
        <ele>154.91</ele>
        <time>2016-09-08T13:46:42Z</time>
      </trkpt>
      <trkpt lat="50.22754" lon="3.70123">
        <ele>154.43</ele>
        <time>2016-09-08T13:46:58Z</time>
      </trkpt>
      <trkpt lat="50.22766" lon="3.70098">
        <ele>153.95</ele>
        <time>2016-09-08T13:47:16Z</time>
      </trkpt>
      <trkpt lat="50.22779" lon="3.70076">
        <ele>154.43</ele>
        <time>2016-09-08T13:47:30Z</time>
      </trkpt>
      <trkpt lat="50.22783" lon="3.70068">
        <ele>153.95</ele>
        <time>2016-09-08T13:47:36Z</time>
      </trkpt>
      <trkpt lat="50.22784" lon="3.70067">
        <ele>153.95</ele>
        <time>2016-09-08T13:47:37Z</time>
      </trkpt>
      <trkpt lat="50.22795" lon="3.70047">
        <ele>154.43</ele>
        <time>2016-09-08T13:47:51Z</time>
      </trkpt>
      <trkpt lat="50.22806" lon="3.70022">
        <ele>154.91</ele>
        <time>2016-09-08T13:48:08Z</time>
      </trkpt>
      <trkpt lat="50.22819" lon="3.69997">
        <ele>154.91</ele>
        <time>2016-09-08T13:48:23Z</time>
      </trkpt>
      <trkpt lat="50.22833" lon="3.69977">
        <ele>156.35</ele>
        <time>2016-09-08T13:48:38Z</time>
      </trkpt>
      <trkpt lat="50.2284" lon="3.69962">
        <ele>155.87</ele>
        <time>2016-09-08T13:48:50Z</time>
      </trkpt>
      <trkpt lat="50.22848" lon="3.69944">
        <ele>157.31</ele>
        <time>2016-09-08T13:49:04Z</time>
      </trkpt>
      <trkpt lat="50.22858" lon="3.69925">
        <ele>156.83</ele>
        <time>2016-09-08T13:49:17Z</time>
      </trkpt>
      <trkpt lat="50.22869" lon="3.69909">
        <ele>157.31</ele>
        <time>2016-09-08T13:49:27Z</time>
      </trkpt>
      <trkpt lat="50.2287" lon="3.69907">
        <ele>157.31</ele>
        <time>2016-09-08T13:49:28Z</time>
      </trkpt>
      <trkpt lat="50.22875" lon="3.69896">
        <ele>157.31</ele>
        <time>2016-09-08T13:49:35Z</time>
      </trkpt>
      <trkpt lat="50.22884" lon="3.69882">
        <ele>157.79</ele>
        <time>2016-09-08T13:49:46Z</time>
      </trkpt>
      <trkpt lat="50.22887" lon="3.69876">
        <ele>157.31</ele>
        <time>2016-09-08T13:49:51Z</time>
      </trkpt>
      <trkpt lat="50.22888" lon="3.69874">
        <ele>157.31</ele>
        <time>2016-09-08T13:49:52Z</time>
      </trkpt>
      <trkpt lat="50.22889" lon="3.69873">
        <ele>157.31</ele>
        <time>2016-09-08T13:49:53Z</time>
      </trkpt>
      <trkpt lat="50.2289" lon="3.69871">
        <ele>157.31</ele>
        <time>2016-09-08T13:49:54Z</time>
      </trkpt>
      <trkpt lat="50.22891" lon="3.69869">
        <ele>157.31</ele>
        <time>2016-09-08T13:49:55Z</time>
      </trkpt>
      <trkpt lat="50.22891" lon="3.69868">
        <ele>157.31</ele>
        <time>2016-09-08T13:49:56Z</time>
      </trkpt>
      <trkpt lat="50.22901" lon="3.69852">
        <ele>156.35</ele>
        <time>2016-09-08T13:50:08Z</time>
      </trkpt>
      <trkpt lat="50.22912" lon="3.69836">
        <ele>155.87</ele>
        <time>2016-09-08T13:50:21Z</time>
      </trkpt>
      <trkpt lat="50.22922" lon="3.69816">
        <ele>154.91</ele>
        <time>2016-09-08T13:50:35Z</time>
      </trkpt>
      <trkpt lat="50.22935" lon="3.69798">
        <ele>154.43</ele>
        <time>2016-09-08T13:50:52Z</time>
      </trkpt>
      <trkpt lat="50.22943" lon="3.69786">
        <ele>152.99</ele>
        <time>2016-09-08T13:51:06Z</time>
      </trkpt>
      <trkpt lat="50.22951" lon="3.69775">
        <ele>152.03</ele>
        <time>2016-09-08T13:51:18Z</time>
      </trkpt>
      <trkpt lat="50.22959" lon="3.69764">
        <ele>151.54</ele>
        <time>2016-09-08T13:51:27Z</time>
      </trkpt>
      <trkpt lat="50.2296" lon="3.69762">
        <ele>151.54</ele>
        <time>2016-09-08T13:51:28Z</time>
      </trkpt>
      <trkpt lat="50.2297" lon="3.69747">
        <ele>150.58</ele>
        <time>2016-09-08T13:51:40Z</time>
      </trkpt>
      <trkpt lat="50.22971" lon="3.69745">
        <ele>150.1</ele>
        <time>2016-09-08T13:51:41Z</time>
      </trkpt>
      <trkpt lat="50.22975" lon="3.69738">
        <ele>150.1</ele>
        <time>2016-09-08T13:51:48Z</time>
      </trkpt>
      <trkpt lat="50.22988" lon="3.69721">
        <ele>149.62</ele>
        <time>2016-09-08T13:52:03Z</time>
      </trkpt>
      <trkpt lat="50.22995" lon="3.69711">
        <ele>147.7</ele>
        <time>2016-09-08T13:52:16Z</time>
      </trkpt>
      <trkpt lat="50.23001" lon="3.69693">
        <ele>148.18</ele>
        <time>2016-09-08T13:52:38Z</time>
      </trkpt>
      <trkpt lat="50.23004" lon="3.69692">
        <ele>147.7</ele>
        <time>2016-09-08T13:53:05Z</time>
      </trkpt>
      <trkpt lat="50.22999" lon="3.69698">
        <ele>147.7</ele>
        <time>2016-09-08T13:53:31Z</time>
      </trkpt>
      <trkpt lat="50.23001" lon="3.69694">
        <ele>147.7</ele>
        <time>2016-09-08T13:53:51Z</time>
      </trkpt>
      <trkpt lat="50.22997" lon="3.69689">
        <ele>148.18</ele>
        <time>2016-09-08T13:54:15Z</time>
      </trkpt>
      <trkpt lat="50.23" lon="3.69685">
        <ele>147.7</ele>
        <time>2016-09-08T13:54:42Z</time>
      </trkpt>
      <trkpt lat="50.22995" lon="3.69684">
        <ele>147.22</ele>
        <time>2016-09-08T13:55:05Z</time>
      </trkpt>
      <trkpt lat="50.22994" lon="3.69686">
        <ele>147.7</ele>
        <time>2016-09-08T13:55:29Z</time>
      </trkpt>
      <trkpt lat="50.22997" lon="3.69686">
        <ele>147.7</ele>
        <time>2016-09-08T13:55:55Z</time>
      </trkpt>
      <trkpt lat="50.22996" lon="3.69688">
        <ele>147.7</ele>
        <time>2016-09-08T13:56:18Z</time>
      </trkpt>
      <trkpt lat="50.22996" lon="3.69689">
        <ele>147.22</ele>
        <time>2016-09-08T13:56:37Z</time>
      </trkpt>
      <trkpt lat="50.22997" lon="3.69691">
        <ele>147.22</ele>
        <time>2016-09-08T13:56:59Z</time>
      </trkpt>
      <trkpt lat="50.22996" lon="3.69691">
        <ele>147.22</ele>
        <time>2016-09-08T13:57:23Z</time>
      </trkpt>
      <trkpt lat="50.23003" lon="3.69687">
        <ele>147.22</ele>
        <time>2016-09-08T13:57:41Z</time>
      </trkpt>
      <trkpt lat="50.2301" lon="3.69681">
        <ele>146.26</ele>
        <time>2016-09-08T13:57:56Z</time>
      </trkpt>
      <trkpt lat="50.2301" lon="3.69678">
        <ele>146.26</ele>
        <time>2016-09-08T13:58:10Z</time>
      </trkpt>
      <trkpt lat="50.23009" lon="3.69674">
        <ele>146.74</ele>
        <time>2016-09-08T13:58:13Z</time>
      </trkpt>
      <trkpt lat="50.23001" lon="3.69654">
        <ele>146.74</ele>
        <time>2016-09-08T13:58:26Z</time>
      </trkpt>
      <trkpt lat="50.22991" lon="3.69634">
        <ele>146.74</ele>
        <time>2016-09-08T13:58:39Z</time>
      </trkpt>
      <trkpt lat="50.22991" lon="3.69631">
        <ele>146.26</ele>
        <time>2016-09-08T13:58:40Z</time>
      </trkpt>
      <trkpt lat="50.22991" lon="3.69629">
        <ele>146.74</ele>
        <time>2016-09-08T13:58:41Z</time>
      </trkpt>
      <trkpt lat="50.22991" lon="3.69626">
        <ele>146.26</ele>
        <time>2016-09-08T13:58:42Z</time>
      </trkpt>
      <trkpt lat="50.22993" lon="3.69624">
        <ele>146.26</ele>
        <time>2016-09-08T13:58:43Z</time>
      </trkpt>
      <trkpt lat="50.22994" lon="3.69623">
        <ele>145.78</ele>
        <time>2016-09-08T13:58:44Z</time>
      </trkpt>
      <trkpt lat="50.23008" lon="3.69609">
        <ele>145.78</ele>
        <time>2016-09-08T13:58:58Z</time>
      </trkpt>
      <trkpt lat="50.23022" lon="3.69592">
        <ele>147.22</ele>
        <time>2016-09-08T13:59:15Z</time>
      </trkpt>
      <trkpt lat="50.23037" lon="3.69572">
        <ele>147.22</ele>
        <time>2016-09-08T13:59:31Z</time>
      </trkpt>
      <trkpt lat="50.23051" lon="3.69556">
        <ele>147.7</ele>
        <time>2016-09-08T13:59:45Z</time>
      </trkpt>
      <trkpt lat="50.23065" lon="3.69539">
        <ele>148.18</ele>
        <time>2016-09-08T14:00:00Z</time>
      </trkpt>
      <trkpt lat="50.23078" lon="3.69523">
        <ele>148.66</ele>
        <time>2016-09-08T14:00:14Z</time>
      </trkpt>
      <trkpt lat="50.23093" lon="3.69506">
        <ele>150.1</ele>
        <time>2016-09-08T14:00:28Z</time>
      </trkpt>
      <trkpt lat="50.23095" lon="3.69504">
        <ele>149.62</ele>
        <time>2016-09-08T14:00:30Z</time>
      </trkpt>
      <trkpt lat="50.23104" lon="3.69483">
        <ele>151.06</ele>
        <time>2016-09-08T14:00:45Z</time>
      </trkpt>
      <trkpt lat="50.23115" lon="3.69459">
        <ele>150.58</ele>
        <time>2016-09-08T14:01:01Z</time>
      </trkpt>
      <trkpt lat="50.23124" lon="3.69436">
        <ele>151.54</ele>
        <time>2016-09-08T14:01:16Z</time>
      </trkpt>
      <trkpt lat="50.23131" lon="3.69415">
        <ele>152.03</ele>
        <time>2016-09-08T14:01:30Z</time>
      </trkpt>
      <trkpt lat="50.23134" lon="3.69406">
        <ele>151.54</ele>
        <time>2016-09-08T14:01:35Z</time>
      </trkpt>
      <trkpt lat="50.23137" lon="3.69401">
        <ele>152.03</ele>
        <time>2016-09-08T14:01:39Z</time>
      </trkpt>
      <trkpt lat="50.23145" lon="3.69382">
        <ele>151.06</ele>
        <time>2016-09-08T14:01:53Z</time>
      </trkpt>
      <trkpt lat="50.23152" lon="3.69363">
        <ele>150.58</ele>
        <time>2016-09-08T14:02:06Z</time>
      </trkpt>
      <trkpt lat="50.23162" lon="3.69344">
        <ele>149.62</ele>
        <time>2016-09-08T14:02:20Z</time>
      </trkpt>
      <trkpt lat="50.23171" lon="3.69327">
        <ele>149.14</ele>
        <time>2016-09-08T14:02:32Z</time>
      </trkpt>
      <trkpt lat="50.23173" lon="3.69323">
        <ele>148.18</ele>
        <time>2016-09-08T14:02:34Z</time>
      </trkpt>
      <trkpt lat="50.23174" lon="3.69322">
        <ele>148.18</ele>
        <time>2016-09-08T14:02:35Z</time>
      </trkpt>
      <trkpt lat="50.23184" lon="3.69304">
        <ele>148.66</ele>
        <time>2016-09-08T14:02:49Z</time>
      </trkpt>
      <trkpt lat="50.23196" lon="3.6929">
        <ele>148.66</ele>
        <time>2016-09-08T14:03:03Z</time>
      </trkpt>
      <trkpt lat="50.23203" lon="3.69284">
        <ele>148.18</ele>
        <time>2016-09-08T14:03:15Z</time>
      </trkpt>
      <trkpt lat="50.23216" lon="3.69271">
        <ele>148.18</ele>
        <time>2016-09-08T14:03:30Z</time>
      </trkpt>
      <trkpt lat="50.23232" lon="3.69257">
        <ele>148.18</ele>
        <time>2016-09-08T14:03:45Z</time>
      </trkpt>
      <trkpt lat="50.23246" lon="3.6924">
        <ele>147.22</ele>
        <time>2016-09-08T14:03:59Z</time>
      </trkpt>
      <trkpt lat="50.23257" lon="3.69229">
        <ele>148.18</ele>
        <time>2016-09-08T14:04:10Z</time>
      </trkpt>
      <trkpt lat="50.23258" lon="3.69228">
        <ele>148.18</ele>
        <time>2016-09-08T14:04:11Z</time>
      </trkpt>
      <trkpt lat="50.23272" lon="3.69215">
        <ele>147.7</ele>
        <time>2016-09-08T14:04:27Z</time>
      </trkpt>
      <trkpt lat="50.23288" lon="3.692">
        <ele>148.18</ele>
        <time>2016-09-08T14:04:42Z</time>
      </trkpt>
      <trkpt lat="50.23303" lon="3.69188">
        <ele>148.66</ele>
        <time>2016-09-08T14:04:56Z</time>
      </trkpt>
      <trkpt lat="50.23317" lon="3.69176">
        <ele>148.66</ele>
        <time>2016-09-08T14:05:10Z</time>
      </trkpt>
      <trkpt lat="50.23334" lon="3.69164">
        <ele>149.14</ele>
        <time>2016-09-08T14:05:25Z</time>
      </trkpt>
      <trkpt lat="50.23347" lon="3.69157">
        <ele>149.14</ele>
        <time>2016-09-08T14:05:39Z</time>
      </trkpt>
      <trkpt lat="50.23362" lon="3.6915">
        <ele>148.66</ele>
        <time>2016-09-08T14:05:54Z</time>
      </trkpt>
      <trkpt lat="50.23376" lon="3.69143">
        <ele>149.62</ele>
        <time>2016-09-08T14:06:08Z</time>
      </trkpt>
      <trkpt lat="50.23391" lon="3.69135">
        <ele>149.14</ele>
        <time>2016-09-08T14:06:22Z</time>
      </trkpt>
      <trkpt lat="50.23409" lon="3.69123">
        <ele>148.66</ele>
        <time>2016-09-08T14:06:36Z</time>
      </trkpt>
      <trkpt lat="50.23426" lon="3.69113">
        <ele>149.14</ele>
        <time>2016-09-08T14:06:52Z</time>
      </trkpt>
      <trkpt lat="50.23443" lon="3.69103">
        <ele>148.18</ele>
        <time>2016-09-08T14:07:10Z</time>
      </trkpt>
      <trkpt lat="50.23454" lon="3.69094">
        <ele>148.66</ele>
        <time>2016-09-08T14:07:25Z</time>
      </trkpt>
      <trkpt lat="50.23471" lon="3.69091">
        <ele>148.66</ele>
        <time>2016-09-08T14:07:39Z</time>
      </trkpt>
      <trkpt lat="50.23472" lon="3.6909">
        <ele>148.66</ele>
        <time>2016-09-08T14:07:41Z</time>
      </trkpt>
      <trkpt lat="50.23473" lon="3.69089">
        <ele>148.66</ele>
        <time>2016-09-08T14:07:42Z</time>
      </trkpt>
      <trkpt lat="50.23474" lon="3.69088">
        <ele>148.66</ele>
        <time>2016-09-08T14:07:43Z</time>
      </trkpt>
      <trkpt lat="50.23489" lon="3.69079">
        <ele>148.66</ele>
        <time>2016-09-08T14:07:58Z</time>
      </trkpt>
      <trkpt lat="50.23501" lon="3.69071">
        <ele>148.18</ele>
        <time>2016-09-08T14:08:09Z</time>
      </trkpt>
      <trkpt lat="50.23505" lon="3.69065">
        <ele>147.7</ele>
        <time>2016-09-08T14:08:13Z</time>
      </trkpt>
      <trkpt lat="50.23512" lon="3.69057">
        <ele>148.66</ele>
        <time>2016-09-08T14:08:22Z</time>
      </trkpt>
      <trkpt lat="50.23513" lon="3.69055">
        <ele>148.18</ele>
        <time>2016-09-08T14:08:23Z</time>
      </trkpt>
      <trkpt lat="50.23515" lon="3.69053">
        <ele>148.18</ele>
        <time>2016-09-08T14:08:24Z</time>
      </trkpt>
      <trkpt lat="50.23528" lon="3.69036">
        <ele>148.18</ele>
        <time>2016-09-08T14:08:41Z</time>
      </trkpt>
      <trkpt lat="50.23541" lon="3.6902">
        <ele>148.66</ele>
        <time>2016-09-08T14:08:55Z</time>
      </trkpt>
      <trkpt lat="50.23551" lon="3.69004">
        <ele>147.7</ele>
        <time>2016-09-08T14:09:08Z</time>
      </trkpt>
      <trkpt lat="50.23555" lon="3.68997">
        <ele>147.7</ele>
        <time>2016-09-08T14:09:11Z</time>
      </trkpt>
      <trkpt lat="50.23556" lon="3.68995">
        <ele>148.18</ele>
        <time>2016-09-08T14:09:12Z</time>
      </trkpt>
      <trkpt lat="50.23557" lon="3.68993">
        <ele>147.7</ele>
        <time>2016-09-08T14:09:13Z</time>
      </trkpt>
      <trkpt lat="50.23558" lon="3.68991">
        <ele>148.18</ele>
        <time>2016-09-08T14:09:14Z</time>
      </trkpt>
      <trkpt lat="50.23559" lon="3.6899">
        <ele>147.7</ele>
        <time>2016-09-08T14:09:15Z</time>
      </trkpt>
      <trkpt lat="50.2357" lon="3.6897">
        <ele>147.7</ele>
        <time>2016-09-08T14:09:28Z</time>
      </trkpt>
      <trkpt lat="50.23577" lon="3.6894">
        <ele>147.7</ele>
        <time>2016-09-08T14:09:44Z</time>
      </trkpt>
      <trkpt lat="50.23581" lon="3.68914">
        <ele>147.22</ele>
        <time>2016-09-08T14:09:58Z</time>
      </trkpt>
      <trkpt lat="50.23584" lon="3.68884">
        <ele>146.26</ele>
        <time>2016-09-08T14:10:14Z</time>
      </trkpt>
      <trkpt lat="50.23584" lon="3.68882">
        <ele>146.26</ele>
        <time>2016-09-08T14:10:15Z</time>
      </trkpt>
      <trkpt lat="50.23588" lon="3.68854">
        <ele>146.26</ele>
        <time>2016-09-08T14:10:31Z</time>
      </trkpt>
      <trkpt lat="50.2359" lon="3.68832">
        <ele>146.74</ele>
        <time>2016-09-08T14:10:43Z</time>
      </trkpt>
      <trkpt lat="50.23592" lon="3.68804">
        <ele>147.22</ele>
        <time>2016-09-08T14:10:57Z</time>
      </trkpt>
      <trkpt lat="50.23596" lon="3.68777">
        <ele>146.74</ele>
        <time>2016-09-08T14:11:12Z</time>
      </trkpt>
      <trkpt lat="50.23601" lon="3.68756">
        <ele>147.22</ele>
        <time>2016-09-08T14:11:24Z</time>
      </trkpt>
      <trkpt lat="50.23601" lon="3.68754">
        <ele>146.74</ele>
        <time>2016-09-08T14:11:25Z</time>
      </trkpt>
      <trkpt lat="50.23602" lon="3.68752">
        <ele>146.74</ele>
        <time>2016-09-08T14:11:26Z</time>
      </trkpt>
      <trkpt lat="50.23602" lon="3.68749">
        <ele>146.74</ele>
        <time>2016-09-08T14:11:27Z</time>
      </trkpt>
      <trkpt lat="50.23602" lon="3.68747">
        <ele>146.26</ele>
        <time>2016-09-08T14:11:28Z</time>
      </trkpt>
      <trkpt lat="50.23603" lon="3.68744">
        <ele>146.26</ele>
        <time>2016-09-08T14:11:30Z</time>
      </trkpt>
      <trkpt lat="50.23606" lon="3.68734">
        <ele>146.26</ele>
        <time>2016-09-08T14:11:38Z</time>
      </trkpt>
      <trkpt lat="50.23606" lon="3.68732">
        <ele>146.26</ele>
        <time>2016-09-08T14:11:39Z</time>
      </trkpt>
      <trkpt lat="50.23611" lon="3.68713">
        <ele>146.74</ele>
        <time>2016-09-08T14:11:51Z</time>
      </trkpt>
      <trkpt lat="50.23616" lon="3.68694">
        <ele>146.26</ele>
        <time>2016-09-08T14:12:04Z</time>
      </trkpt>
      <trkpt lat="50.23619" lon="3.68681">
        <ele>146.74</ele>
        <time>2016-09-08T14:12:12Z</time>
      </trkpt>
      <trkpt lat="50.23626" lon="3.68661">
        <ele>146.74</ele>
        <time>2016-09-08T14:12:24Z</time>
      </trkpt>
      <trkpt lat="50.23632" lon="3.68643">
        <ele>146.74</ele>
        <time>2016-09-08T14:12:37Z</time>
      </trkpt>
      <trkpt lat="50.23636" lon="3.68633">
        <ele>146.74</ele>
        <time>2016-09-08T14:12:53Z</time>
      </trkpt>
      <trkpt lat="50.23642" lon="3.68615">
        <ele>146.74</ele>
        <time>2016-09-08T14:13:08Z</time>
      </trkpt>
      <trkpt lat="50.23646" lon="3.68603">
        <ele>146.74</ele>
        <time>2016-09-08T14:13:22Z</time>
      </trkpt>
      <trkpt lat="50.23649" lon="3.68592">
        <ele>143.37</ele>
        <time>2016-09-08T14:13:31Z</time>
      </trkpt>
      <trkpt lat="50.23649" lon="3.68591">
        <ele>150.1</ele>
        <time>2016-09-08T14:13:32Z</time>
      </trkpt>
      <trkpt lat="50.23649" lon="3.68591">
        <ele>147.22</ele>
        <time>2016-09-08T14:13:33Z</time>
      </trkpt>
      <trkpt lat="50.23656" lon="3.68571">
        <ele>146.74</ele>
        <time>2016-09-08T14:13:47Z</time>
      </trkpt>
      <trkpt lat="50.23662" lon="3.68553">
        <ele>147.22</ele>
        <time>2016-09-08T14:13:59Z</time>
      </trkpt>
      <trkpt lat="50.23664" lon="3.68549">
        <ele>147.22</ele>
        <time>2016-09-08T14:14:03Z</time>
      </trkpt>
      <trkpt lat="50.23665" lon="3.68545">
        <ele>146.74</ele>
        <time>2016-09-08T14:14:05Z</time>
      </trkpt>
      <trkpt lat="50.23671" lon="3.68527">
        <ele>147.22</ele>
        <time>2016-09-08T14:14:17Z</time>
      </trkpt>
      <trkpt lat="50.23677" lon="3.68513">
        <ele>147.22</ele>
        <time>2016-09-08T14:14:28Z</time>
      </trkpt>
      <trkpt lat="50.23684" lon="3.68493">
        <ele>147.22</ele>
        <time>2016-09-08T14:14:43Z</time>
      </trkpt>
      <trkpt lat="50.23694" lon="3.68466">
        <ele>146.74</ele>
        <time>2016-09-08T14:15:01Z</time>
      </trkpt>
      <trkpt lat="50.23702" lon="3.68445">
        <ele>146.74</ele>
        <time>2016-09-08T14:15:16Z</time>
      </trkpt>
      <trkpt lat="50.2371" lon="3.6842">
        <ele>146.74</ele>
        <time>2016-09-08T14:15:30Z</time>
      </trkpt>
      <trkpt lat="50.23721" lon="3.68388">
        <ele>146.26</ele>
        <time>2016-09-08T14:15:47Z</time>
      </trkpt>
      <trkpt lat="50.23728" lon="3.68366">
        <ele>146.26</ele>
        <time>2016-09-08T14:16:00Z</time>
      </trkpt>
      <trkpt lat="50.23737" lon="3.68343">
        <ele>146.26</ele>
        <time>2016-09-08T14:16:15Z</time>
      </trkpt>
      <trkpt lat="50.23746" lon="3.68317">
        <ele>145.78</ele>
        <time>2016-09-08T14:16:29Z</time>
      </trkpt>
      <trkpt lat="50.23757" lon="3.68299">
        <ele>145.78</ele>
        <time>2016-09-08T14:16:43Z</time>
      </trkpt>
      <trkpt lat="50.23769" lon="3.68286">
        <ele>145.3</ele>
        <time>2016-09-08T14:16:55Z</time>
      </trkpt>
      <trkpt lat="50.2377" lon="3.68285">
        <ele>145.3</ele>
        <time>2016-09-08T14:16:56Z</time>
      </trkpt>
      <trkpt lat="50.23784" lon="3.68267">
        <ele>145.3</ele>
        <time>2016-09-08T14:17:11Z</time>
      </trkpt>
      <trkpt lat="50.23786" lon="3.68263">
        <ele>145.3</ele>
        <time>2016-09-08T14:17:15Z</time>
      </trkpt>
      <trkpt lat="50.23792" lon="3.68264">
        <ele>144.82</ele>
        <time>2016-09-08T14:17:30Z</time>
      </trkpt>
      <trkpt lat="50.23791" lon="3.68268">
        <ele>144.82</ele>
        <time>2016-09-08T14:18:04Z</time>
      </trkpt>
      <trkpt lat="50.23791" lon="3.68262">
        <ele>145.3</ele>
        <time>2016-09-08T14:18:33Z</time>
      </trkpt>
      <trkpt lat="50.2379" lon="3.6826">
        <ele>145.3</ele>
        <time>2016-09-08T14:19:09Z</time>
      </trkpt>
      <trkpt lat="50.23793" lon="3.68263">
        <ele>144.82</ele>
        <time>2016-09-08T14:19:37Z</time>
      </trkpt>
      <trkpt lat="50.23795" lon="3.68264">
        <ele>144.82</ele>
        <time>2016-09-08T14:20:09Z</time>
      </trkpt>
      <trkpt lat="50.23797" lon="3.68265">
        <ele>144.82</ele>
        <time>2016-09-08T14:20:31Z</time>
      </trkpt>
      <trkpt lat="50.23798" lon="3.68272">
        <ele>144.82</ele>
        <time>2016-09-08T14:20:35Z</time>
      </trkpt>
      <trkpt lat="50.23799" lon="3.68274">
        <ele>144.82</ele>
        <time>2016-09-08T14:20:36Z</time>
      </trkpt>
      <trkpt lat="50.23799" lon="3.68294">
        <ele>144.82</ele>
        <time>2016-09-08T14:20:48Z</time>
      </trkpt>
      <trkpt lat="50.23799" lon="3.68307">
        <ele>144.82</ele>
        <time>2016-09-08T14:20:56Z</time>
      </trkpt>
      <trkpt lat="50.23799" lon="3.68308">
        <ele>144.34</ele>
        <time>2016-09-08T14:20:57Z</time>
      </trkpt>
      <trkpt lat="50.23799" lon="3.6831">
        <ele>144.82</ele>
        <time>2016-09-08T14:20:58Z</time>
      </trkpt>
      <trkpt lat="50.23799" lon="3.68311">
        <ele>144.82</ele>
        <time>2016-09-08T14:20:59Z</time>
      </trkpt>
      <trkpt lat="50.23802" lon="3.68334">
        <ele>144.82</ele>
        <time>2016-09-08T14:21:13Z</time>
      </trkpt>
      <trkpt lat="50.23809" lon="3.68356">
        <ele>144.82</ele>
        <time>2016-09-08T14:21:26Z</time>
      </trkpt>
      <trkpt lat="50.23817" lon="3.68377">
        <ele>144.34</ele>
        <time>2016-09-08T14:21:40Z</time>
      </trkpt>
      <trkpt lat="50.23823" lon="3.68396">
        <ele>143.85</ele>
        <time>2016-09-08T14:21:51Z</time>
      </trkpt>
      <trkpt lat="50.2383" lon="3.68417">
        <ele>143.85</ele>
        <time>2016-09-08T14:22:03Z</time>
      </trkpt>
      <trkpt lat="50.23838" lon="3.68437">
        <ele>142.89</ele>
        <time>2016-09-08T14:22:16Z</time>
      </trkpt>
      <trkpt lat="50.23846" lon="3.68468">
        <ele>142.41</ele>
        <time>2016-09-08T14:22:32Z</time>
      </trkpt>
      <trkpt lat="50.23852" lon="3.68501">
        <ele>141.93</ele>
        <time>2016-09-08T14:22:47Z</time>
      </trkpt>
      <trkpt lat="50.23853" lon="3.68503">
        <ele>140.97</ele>
        <time>2016-09-08T14:22:49Z</time>
      </trkpt>
      <trkpt lat="50.23859" lon="3.68537">
        <ele>141.45</ele>
        <time>2016-09-08T14:23:06Z</time>
      </trkpt>
      <trkpt lat="50.23865" lon="3.68566">
        <ele>140.97</ele>
        <time>2016-09-08T14:23:20Z</time>
      </trkpt>
      <trkpt lat="50.23868" lon="3.68583">
        <ele>140.49</ele>
        <time>2016-09-08T14:23:30Z</time>
      </trkpt>
      <trkpt lat="50.23868" lon="3.68585">
        <ele>140.97</ele>
        <time>2016-09-08T14:23:31Z</time>
      </trkpt>
      <trkpt lat="50.23868" lon="3.68593">
        <ele>140.49</ele>
        <time>2016-09-08T14:23:35Z</time>
      </trkpt>
      <trkpt lat="50.23873" lon="3.68614">
        <ele>141.45</ele>
        <time>2016-09-08T14:23:47Z</time>
      </trkpt>
      <trkpt lat="50.23881" lon="3.68648">
        <ele>141.45</ele>
        <time>2016-09-08T14:24:01Z</time>
      </trkpt>
      <trkpt lat="50.23887" lon="3.68677">
        <ele>140.01</ele>
        <time>2016-09-08T14:24:18Z</time>
      </trkpt>
      <trkpt lat="50.23896" lon="3.68699">
        <ele>140.01</ele>
        <time>2016-09-08T14:24:33Z</time>
      </trkpt>
      <trkpt lat="50.23904" lon="3.6873">
        <ele>139.05</ele>
        <time>2016-09-08T14:24:48Z</time>
      </trkpt>
      <trkpt lat="50.23906" lon="3.68738">
        <ele>138.09</ele>
        <time>2016-09-08T14:24:52Z</time>
      </trkpt>
      <trkpt lat="50.23913" lon="3.68759">
        <ele>138.09</ele>
        <time>2016-09-08T14:25:05Z</time>
      </trkpt>
      <trkpt lat="50.23921" lon="3.6879">
        <ele>137.61</ele>
        <time>2016-09-08T14:25:20Z</time>
      </trkpt>
      <trkpt lat="50.23928" lon="3.68821">
        <ele>137.13</ele>
        <time>2016-09-08T14:25:35Z</time>
      </trkpt>
      <trkpt lat="50.2394" lon="3.68841">
        <ele>137.13</ele>
        <time>2016-09-08T14:25:49Z</time>
      </trkpt>
      <trkpt lat="50.23954" lon="3.6886">
        <ele>136.64</ele>
        <time>2016-09-08T14:26:03Z</time>
      </trkpt>
      <trkpt lat="50.23967" lon="3.68878">
        <ele>137.13</ele>
        <time>2016-09-08T14:26:18Z</time>
      </trkpt>
      <trkpt lat="50.2398" lon="3.68894">
        <ele>136.64</ele>
        <time>2016-09-08T14:26:31Z</time>
      </trkpt>
      <trkpt lat="50.23994" lon="3.68913">
        <ele>135.68</ele>
        <time>2016-09-08T14:26:46Z</time>
      </trkpt>
      <trkpt lat="50.23995" lon="3.68914">
        <ele>135.2</ele>
        <time>2016-09-08T14:26:48Z</time>
      </trkpt>
      <trkpt lat="50.23996" lon="3.68915">
        <ele>136.16</ele>
        <time>2016-09-08T14:26:49Z</time>
      </trkpt>
      <trkpt lat="50.23997" lon="3.68921">
        <ele>136.16</ele>
        <time>2016-09-08T14:27:02Z</time>
      </trkpt>
      <trkpt lat="50.24006" lon="3.6893">
        <ele>135.2</ele>
        <time>2016-09-08T14:27:14Z</time>
      </trkpt>
      <trkpt lat="50.2402" lon="3.68952">
        <ele>134.24</ele>
        <time>2016-09-08T14:27:29Z</time>
      </trkpt>
      <trkpt lat="50.2403" lon="3.68967">
        <ele>134.24</ele>
        <time>2016-09-08T14:27:42Z</time>
      </trkpt>
      <trkpt lat="50.24045" lon="3.6899">
        <ele>133.76</ele>
        <time>2016-09-08T14:27:57Z</time>
      </trkpt>
      <trkpt lat="50.24057" lon="3.69011">
        <ele>133.28</ele>
        <time>2016-09-08T14:28:12Z</time>
      </trkpt>
      <trkpt lat="50.24067" lon="3.69028">
        <ele>132.8</ele>
        <time>2016-09-08T14:28:24Z</time>
      </trkpt>
      <trkpt lat="50.24076" lon="3.69045">
        <ele>132.8</ele>
        <time>2016-09-08T14:28:36Z</time>
      </trkpt>
      <trkpt lat="50.24087" lon="3.69065">
        <ele>131.84</ele>
        <time>2016-09-08T14:28:51Z</time>
      </trkpt>
      <trkpt lat="50.24098" lon="3.69084">
        <ele>131.36</ele>
        <time>2016-09-08T14:29:05Z</time>
      </trkpt>
      <trkpt lat="50.24109" lon="3.69106">
        <ele>131.36</ele>
        <time>2016-09-08T14:29:19Z</time>
      </trkpt>
      <trkpt lat="50.2412" lon="3.69127">
        <ele>130.4</ele>
        <time>2016-09-08T14:29:33Z</time>
      </trkpt>
      <trkpt lat="50.24131" lon="3.69147">
        <ele>130.88</ele>
        <time>2016-09-08T14:29:47Z</time>
      </trkpt>
      <trkpt lat="50.24142" lon="3.69166">
        <ele>130.88</ele>
        <time>2016-09-08T14:30:01Z</time>
      </trkpt>
      <trkpt lat="50.24154" lon="3.69188">
        <ele>130.88</ele>
        <time>2016-09-08T14:30:16Z</time>
      </trkpt>
      <trkpt lat="50.24163" lon="3.69207">
        <ele>130.88</ele>
        <time>2016-09-08T14:30:30Z</time>
      </trkpt>
      <trkpt lat="50.24175" lon="3.6923">
        <ele>130.88</ele>
        <time>2016-09-08T14:30:45Z</time>
      </trkpt>
      <trkpt lat="50.24184" lon="3.69247">
        <ele>131.84</ele>
        <time>2016-09-08T14:30:59Z</time>
      </trkpt>
      <trkpt lat="50.24191" lon="3.69262">
        <ele>131.36</ele>
        <time>2016-09-08T14:31:11Z</time>
      </trkpt>
      <trkpt lat="50.24202" lon="3.69285">
        <ele>132.32</ele>
        <time>2016-09-08T14:31:26Z</time>
      </trkpt>
      <trkpt lat="50.24213" lon="3.69308">
        <ele>132.32</ele>
        <time>2016-09-08T14:31:41Z</time>
      </trkpt>
      <trkpt lat="50.24221" lon="3.69325">
        <ele>132.32</ele>
        <time>2016-09-08T14:31:54Z</time>
      </trkpt>
      <trkpt lat="50.24231" lon="3.69346">
        <ele>132.8</ele>
        <time>2016-09-08T14:32:08Z</time>
      </trkpt>
      <trkpt lat="50.24241" lon="3.69362">
        <ele>133.28</ele>
        <time>2016-09-08T14:32:21Z</time>
      </trkpt>
      <trkpt lat="50.2425" lon="3.69383">
        <ele>133.28</ele>
        <time>2016-09-08T14:32:35Z</time>
      </trkpt>
      <trkpt lat="50.24256" lon="3.6939">
        <ele>133.76</ele>
        <time>2016-09-08T14:32:43Z</time>
      </trkpt>
      <trkpt lat="50.24257" lon="3.69391">
        <ele>133.76</ele>
        <time>2016-09-08T14:32:44Z</time>
      </trkpt>
      <trkpt lat="50.24257" lon="3.69392">
        <ele>133.76</ele>
        <time>2016-09-08T14:32:45Z</time>
      </trkpt>
      <trkpt lat="50.24259" lon="3.69396">
        <ele>133.76</ele>
        <time>2016-09-08T14:32:48Z</time>
      </trkpt>
      <trkpt lat="50.2426" lon="3.69397">
        <ele>133.28</ele>
        <time>2016-09-08T14:32:49Z</time>
      </trkpt>
      <trkpt lat="50.24261" lon="3.69398">
        <ele>134.24</ele>
        <time>2016-09-08T14:32:50Z</time>
      </trkpt>
      <trkpt lat="50.24262" lon="3.694">
        <ele>134.24</ele>
        <time>2016-09-08T14:32:51Z</time>
      </trkpt>
      <trkpt lat="50.24273" lon="3.69417">
        <ele>133.76</ele>
        <time>2016-09-08T14:33:05Z</time>
      </trkpt>
      <trkpt lat="50.24281" lon="3.69438">
        <ele>134.24</ele>
        <time>2016-09-08T14:33:18Z</time>
      </trkpt>
      <trkpt lat="50.24288" lon="3.69455">
        <ele>134.24</ele>
        <time>2016-09-08T14:33:31Z</time>
      </trkpt>
      <trkpt lat="50.24297" lon="3.69479">
        <ele>133.76</ele>
        <time>2016-09-08T14:33:46Z</time>
      </trkpt>
      <trkpt lat="50.24306" lon="3.69503">
        <ele>133.76</ele>
        <time>2016-09-08T14:33:59Z</time>
      </trkpt>
      <trkpt lat="50.24312" lon="3.6953">
        <ele>133.76</ele>
        <time>2016-09-08T14:34:13Z</time>
      </trkpt>
      <trkpt lat="50.24313" lon="3.69558">
        <ele>133.76</ele>
        <time>2016-09-08T14:34:29Z</time>
      </trkpt>
      <trkpt lat="50.24312" lon="3.6959">
        <ele>133.28</ele>
        <time>2016-09-08T14:34:50Z</time>
      </trkpt>
      <trkpt lat="50.2431" lon="3.69601">
        <ele>132.8</ele>
        <time>2016-09-08T14:34:59Z</time>
      </trkpt>
      <trkpt lat="50.24312" lon="3.69604">
        <ele>132.32</ele>
        <time>2016-09-08T14:35:01Z</time>
      </trkpt>
      <trkpt lat="50.24312" lon="3.69605">
        <ele>132.8</ele>
        <time>2016-09-08T14:35:02Z</time>
      </trkpt>
      <trkpt lat="50.24326" lon="3.69619">
        <ele>132.32</ele>
        <time>2016-09-08T14:35:15Z</time>
      </trkpt>
      <trkpt lat="50.24343" lon="3.69625">
        <ele>131.36</ele>
        <time>2016-09-08T14:35:28Z</time>
      </trkpt>
      <trkpt lat="50.24355" lon="3.69623">
        <ele>131.36</ele>
        <time>2016-09-08T14:35:40Z</time>
      </trkpt>
      <trkpt lat="50.24358" lon="3.69619">
        <ele>130.88</ele>
        <time>2016-09-08T14:35:45Z</time>
      </trkpt>
      <trkpt lat="50.24359" lon="3.69618">
        <ele>130.88</ele>
        <time>2016-09-08T14:35:46Z</time>
      </trkpt>
      <trkpt lat="50.2436" lon="3.69617">
        <ele>130.88</ele>
        <time>2016-09-08T14:35:47Z</time>
      </trkpt>
      <trkpt lat="50.24367" lon="3.6961">
        <ele>130.88</ele>
        <time>2016-09-08T14:35:55Z</time>
      </trkpt>
      <trkpt lat="50.24379" lon="3.696">
        <ele>130.4</ele>
        <time>2016-09-08T14:36:08Z</time>
      </trkpt>
      <trkpt lat="50.24386" lon="3.69595">
        <ele>130.88</ele>
        <time>2016-09-08T14:36:17Z</time>
      </trkpt>
      <trkpt lat="50.24403" lon="3.69591">
        <ele>130.4</ele>
        <time>2016-09-08T14:36:31Z</time>
      </trkpt>
      <trkpt lat="50.24404" lon="3.69591">
        <ele>130.88</ele>
        <time>2016-09-08T14:36:32Z</time>
      </trkpt>
      <trkpt lat="50.24406" lon="3.69593">
        <ele>130.4</ele>
        <time>2016-09-08T14:36:33Z</time>
      </trkpt>
      <trkpt lat="50.24407" lon="3.69594">
        <ele>130.4</ele>
        <time>2016-09-08T14:36:34Z</time>
      </trkpt>
      <trkpt lat="50.24408" lon="3.69595">
        <ele>130.4</ele>
        <time>2016-09-08T14:36:35Z</time>
      </trkpt>
      <trkpt lat="50.24409" lon="3.69597">
        <ele>130.4</ele>
        <time>2016-09-08T14:36:36Z</time>
      </trkpt>
      <trkpt lat="50.24429" lon="3.69615">
        <ele>130.4</ele>
        <time>2016-09-08T14:36:53Z</time>
      </trkpt>
      <trkpt lat="50.2445" lon="3.6963">
        <ele>130.88</ele>
        <time>2016-09-08T14:37:09Z</time>
      </trkpt>
      <trkpt lat="50.2447" lon="3.6964">
        <ele>129.92</ele>
        <time>2016-09-08T14:37:26Z</time>
      </trkpt>
      <trkpt lat="50.2449" lon="3.69649">
        <ele>131.36</ele>
        <time>2016-09-08T14:37:41Z</time>
      </trkpt>
      <trkpt lat="50.24517" lon="3.69655">
        <ele>131.84</ele>
        <time>2016-09-08T14:37:58Z</time>
      </trkpt>
      <trkpt lat="50.24536" lon="3.69663">
        <ele>131.84</ele>
        <time>2016-09-08T14:38:16Z</time>
      </trkpt>
      <trkpt lat="50.24559" lon="3.69673">
        <ele>133.28</ele>
        <time>2016-09-08T14:38:34Z</time>
      </trkpt>
      <trkpt lat="50.24575" lon="3.69682">
        <ele>134.72</ele>
        <time>2016-09-08T14:38:49Z</time>
      </trkpt>
      <trkpt lat="50.24594" lon="3.6969">
        <ele>135.68</ele>
        <time>2016-09-08T14:39:08Z</time>
      </trkpt>
      <trkpt lat="50.24608" lon="3.69707">
        <ele>137.61</ele>
        <time>2016-09-08T14:39:24Z</time>
      </trkpt>
      <trkpt lat="50.24609" lon="3.6971">
        <ele>137.13</ele>
        <time>2016-09-08T14:39:26Z</time>
      </trkpt>
      <trkpt lat="50.2461" lon="3.69713">
        <ele>137.13</ele>
        <time>2016-09-08T14:39:27Z</time>
      </trkpt>
      <trkpt lat="50.2461" lon="3.69715">
        <ele>137.61</ele>
        <time>2016-09-08T14:39:28Z</time>
      </trkpt>
      <trkpt lat="50.24611" lon="3.69718">
        <ele>137.13</ele>
        <time>2016-09-08T14:39:29Z</time>
      </trkpt>
      <trkpt lat="50.24611" lon="3.6972">
        <ele>137.13</ele>
        <time>2016-09-08T14:39:30Z</time>
      </trkpt>
      <trkpt lat="50.24611" lon="3.69723">
        <ele>137.61</ele>
        <time>2016-09-08T14:39:31Z</time>
      </trkpt>
      <trkpt lat="50.24611" lon="3.69725">
        <ele>137.61</ele>
        <time>2016-09-08T14:39:32Z</time>
      </trkpt>
      <trkpt lat="50.2461" lon="3.69732">
        <ele>137.13</ele>
        <time>2016-09-08T14:39:37Z</time>
      </trkpt>
      <trkpt lat="50.24606" lon="3.69754">
        <ele>137.13</ele>
        <time>2016-09-08T14:39:50Z</time>
      </trkpt>
      <trkpt lat="50.246" lon="3.69784">
        <ele>137.13</ele>
        <time>2016-09-08T14:40:05Z</time>
      </trkpt>
      <trkpt lat="50.24599" lon="3.69794">
        <ele>137.13</ele>
        <time>2016-09-08T14:40:11Z</time>
      </trkpt>
      <trkpt lat="50.24602" lon="3.69801">
        <ele>138.09</ele>
        <time>2016-09-08T14:40:16Z</time>
      </trkpt>
      <trkpt lat="50.24605" lon="3.69804">
        <ele>139.05</ele>
        <time>2016-09-08T14:40:30Z</time>
      </trkpt>
    </trkseg>
  </trk>
</gpx>